<?xml version="1.0" encoding="UTF-8" standalone="no" ?><gpx xmlns="http://www.topografix.com/GPX/1/1" xmlns:gpxx="http://www.garmin.com/xmlschemas/GpxExtensions/v3" xmlns:wptx1="http://www.garmin.com/xmlschemas/WaypointExtension/v1" xmlns:gpxtpx="http://www.garmin.com/xmlschemas/TrackPointExtension/v1" creator="GuideVTT.com" version="1.1" xmlns:xsi="http://www.w3.org/2001/XMLSchema-instance" xsi:schemaLocation="http://www.topografix.com/GPX/1/1 http://www.topografix.com/GPX/1/1/gpx.xsd http://www.garmin.com/xmlschemas/GpxExtensions/v3 http://www8.garmin.com/xmlschemas/GpxExtensionsv3.xsd http://www.garmin.com/xmlschemas/WaypointExtension/v1 http://www8.garmin.com/xmlschemas/WaypointExtensionv1.xsd http://www.garmin.com/xmlschemas/TrackPointExtension/v1 http://www.garmin.com/xmlschemas/TrackPointExtensionv1.xsd">
<metadata><link href="http://www.garmin.com"><text>Garmin International</text></link><time>2013-06-22T15:13:50Z</time></metadata>
<trk><name>soladier.gpx</name><extensions><gpxx:TrackExtension><gpxx:DisplayColor>Cyan</gpxx:DisplayColor></gpxx:TrackExtension></extensions><trkseg>
<trkpt lat="46.63543810529531" lon="7.051335994936086"><ele></ele><time>2019-8-5T15:16:56Z</time></trkpt>
<trkpt lat="46.635724844708655" lon="7.0510074442291675"><ele></ele><time>2019-8-5T15:16:59Z</time></trkpt>
<trkpt lat="46.63605892306848" lon="7.051370710722053"><ele></ele><time>2019-8-5T15:17:2Z</time></trkpt>
<trkpt lat="46.635560830060236" lon="7.0503948263129095"><ele></ele><time>2019-8-5T15:17:5Z</time></trkpt>
<trkpt lat="46.63556714358954" lon="7.049611208729106"><ele></ele><time>2019-8-5T15:17:8Z</time></trkpt>
<trkpt lat="46.63583503607264" lon="7.049034651848937"><ele></ele><time>2019-8-5T15:17:11Z</time></trkpt>
<trkpt lat="46.63599758083474" lon="7.049216311313611"><ele></ele><time>2019-8-5T15:17:14Z</time></trkpt>
<trkpt lat="46.636373506059776" lon="7.048665085260969"><ele></ele><time>2019-8-5T15:17:17Z</time></trkpt>
<trkpt lat="46.636517567333925" lon="7.048703221741461"><ele></ele><time>2019-8-5T15:17:20Z</time></trkpt>
<trkpt lat="46.63628458506447" lon="7.046354160203594"><ele></ele><time>2019-8-5T15:17:23Z</time></trkpt>
<trkpt lat="46.63501289939723" lon="7.042811261488245"><ele></ele><time>2019-8-5T15:17:26Z</time></trkpt>
<trkpt lat="46.63489130779687" lon="7.041480098259971"><ele></ele><time>2019-8-5T15:17:29Z</time></trkpt>
<trkpt lat="46.63269137473453" lon="7.0375003069149455"><ele></ele><time>2019-8-5T15:17:32Z</time></trkpt>
<trkpt lat="46.632128158551126" lon="7.03595051295632"><ele></ele><time>2019-8-5T15:17:35Z</time></trkpt>
<trkpt lat="46.63074508268751" lon="7.034054325464666"><ele></ele><time>2019-8-5T15:17:38Z</time></trkpt>
<trkpt lat="46.63018992722789" lon="7.032256455440006"><ele></ele><time>2019-8-5T15:17:41Z</time></trkpt>
<trkpt lat="46.62923917978002" lon="7.030526908803844"><ele></ele><time>2019-8-5T15:17:44Z</time></trkpt>
<trkpt lat="46.62870214790573" lon="7.0287812184490175"><ele></ele><time>2019-8-5T15:17:47Z</time></trkpt>
<trkpt lat="46.62831946170455" lon="7.024958193040628"><ele></ele><time>2019-8-5T15:17:50Z</time></trkpt>
<trkpt lat="46.62730247923868" lon="7.022367545529134"><ele></ele><time>2019-8-5T15:17:53Z</time></trkpt>
<trkpt lat="46.62706015043553" lon="7.020071296879418"><ele></ele><time>2019-8-5T15:17:56Z</time></trkpt>
<trkpt lat="46.62651217335195" lon="7.01784274222646"><ele></ele><time>2019-8-5T15:17:59Z</time></trkpt>
<trkpt lat="46.6256985166819" lon="7.01675229229803"><ele></ele><time>2019-8-5T15:18:2Z</time></trkpt>
<trkpt lat="46.62434634044896" lon="7.015992522766918"><ele></ele><time>2019-8-5T15:18:5Z</time></trkpt>
<trkpt lat="46.62375269201261" lon="7.0160102347850195"><ele></ele><time>2019-8-5T15:18:8Z</time></trkpt>
<trkpt lat="46.62322862380462" lon="7.01538762833475"><ele></ele><time>2019-8-5T15:18:11Z</time></trkpt>
<trkpt lat="46.62133457794835" lon="7.0164731038521175"><ele></ele><time>2019-8-5T15:18:14Z</time></trkpt>
<trkpt lat="46.62087586048412" lon="7.016489752791408"><ele></ele><time>2019-8-5T15:18:17Z</time></trkpt>
<trkpt lat="46.61915087564181" lon="7.017077709033564"><ele></ele><time>2019-8-5T15:18:20Z</time></trkpt>
<trkpt lat="46.61808463303536" lon="7.018221862338575"><ele></ele><time>2019-8-5T15:18:23Z</time></trkpt>
<trkpt lat="46.61666707538833" lon="7.019238153131188"><ele></ele><time>2019-8-5T15:18:26Z</time></trkpt>
<trkpt lat="46.61666193342631" lon="7.020282592400809"><ele></ele><time>2019-8-5T15:18:29Z</time></trkpt>
<trkpt lat="46.6163862473561" lon="7.021146357042963"><ele></ele><time>2019-8-5T15:18:32Z</time></trkpt>
<trkpt lat="46.61639271494516" lon="7.022908721646559"><ele></ele><time>2019-8-5T15:18:35Z</time></trkpt>
<trkpt lat="46.616233329059696" lon="7.0236018598059715"><ele></ele><time>2019-8-5T15:18:38Z</time></trkpt>
<trkpt lat="46.616731462029826" lon="7.024524929453032"><ele></ele><time>2019-8-5T15:18:41Z</time></trkpt>
<trkpt lat="46.61644055413093" lon="7.0261590309963236"><ele></ele><time>2019-8-5T15:18:44Z</time></trkpt>
<trkpt lat="46.61652577592357" lon="7.02733332447575"><ele></ele><time>2019-8-5T15:18:47Z</time></trkpt>
<trkpt lat="46.61541020169569" lon="7.027302673076491"><ele></ele><time>2019-8-5T15:18:50Z</time></trkpt>
<trkpt lat="46.61483529857739" lon="7.027528987510201"><ele></ele><time>2019-8-5T15:18:53Z</time></trkpt>
<trkpt lat="46.613614849236605" lon="7.028347659027565"><ele></ele><time>2019-8-5T15:18:56Z</time></trkpt>
<trkpt lat="46.612419306805" lon="7.0285917301797545"><ele></ele><time>2019-8-5T15:18:59Z</time></trkpt>
<trkpt lat="46.61001657391885" lon="7.030842134337366"><ele></ele><time>2019-8-5T15:19:2Z</time></trkpt>
<trkpt lat="46.608774932715455" lon="7.02828007110423"><ele></ele><time>2019-8-5T15:19:5Z</time></trkpt>
<trkpt lat="46.60871457576154" lon="7.0265183669464255"><ele></ele><time>2019-8-5T15:19:8Z</time></trkpt>
<trkpt lat="46.608540246504695" lon="7.025579882020503"><ele></ele><time>2019-8-5T15:19:11Z</time></trkpt>
<trkpt lat="46.608231263745004" lon="7.024720754864032"><ele></ele><time>2019-8-5T15:19:14Z</time></trkpt>
<trkpt lat="46.608370136618156" lon="7.023336072329727"><ele></ele><time>2019-8-5T15:19:17Z</time></trkpt>
<trkpt lat="46.60812400916286" lon="7.0224503695107385"><ele></ele><time>2019-8-5T15:19:20Z</time></trkpt>
<trkpt lat="46.60726426635265" lon="7.021047313093502"><ele></ele><time>2019-8-5T15:19:23Z</time></trkpt>
<trkpt lat="46.607073248102324" lon="7.020474475080923"><ele></ele><time>2019-8-5T15:19:26Z</time></trkpt>
<trkpt lat="46.60657131837521" lon="7.018533537856633"><ele></ele><time>2019-8-5T15:19:29Z</time></trkpt>
<trkpt lat="46.60656058285784" lon="7.018063729656556"><ele></ele><time>2019-8-5T15:19:32Z</time></trkpt>
<trkpt lat="46.606351704008944" lon="7.017530206559339"><ele></ele><time>2019-8-5T15:19:35Z</time></trkpt>
<trkpt lat="46.60610110927368" lon="7.0154568256123415"><ele></ele><time>2019-8-5T15:19:38Z</time></trkpt>
<trkpt lat="46.60587422734994" lon="7.0149234585202604"><ele></ele><time>2019-8-5T15:19:41Z</time></trkpt>
<trkpt lat="46.60545970696852" lon="7.014730931902299"><ele></ele><time>2019-8-5T15:19:44Z</time></trkpt>
<trkpt lat="46.60514520840486" lon="7.014824770140312"><ele></ele><time>2019-8-5T15:19:47Z</time></trkpt>
<trkpt lat="46.60369164947097" lon="7.015828137383526"><ele></ele><time>2019-8-5T15:19:50Z</time></trkpt>
<trkpt lat="46.602648277610406" lon="7.0158624225589215"><ele></ele><time>2019-8-5T15:19:53Z</time></trkpt>
<trkpt lat="46.60248592238621" lon="7.0157462314901275"><ele></ele><time>2019-8-5T15:19:56Z</time></trkpt>
<trkpt lat="46.60115931002309" lon="7.01460812632386"><ele></ele><time>2019-8-5T15:19:59Z</time></trkpt>
<trkpt lat="46.60088627479824" lon="7.013761946513015"><ele></ele><time>2019-8-5T15:20:2Z</time></trkpt>
<trkpt lat="46.59985364762113" lon="7.011864646541307"><ele></ele><time>2019-8-5T15:20:5Z</time></trkpt>
<trkpt lat="46.59917825462034" lon="7.011674230446954"><ele></ele><time>2019-8-5T15:20:8Z</time></trkpt>
<trkpt lat="46.59889148082258" lon="7.011963616681084"><ele></ele><time>2019-8-5T15:20:11Z</time></trkpt>
<trkpt lat="46.59864806460666" lon="7.011821985669925"><ele></ele><time>2019-8-5T15:20:14Z</time></trkpt>
<trkpt lat="46.59808114445622" lon="7.009386027553889"><ele></ele><time>2019-8-5T15:20:17Z</time></trkpt>
<trkpt lat="46.59746520539253" lon="7.0082685993594245"><ele></ele><time>2019-8-5T15:20:20Z</time></trkpt>
<trkpt lat="46.59639895101692" lon="7.009386367944026"><ele></ele><time>2019-8-5T15:20:23Z</time></trkpt>
<trkpt lat="46.59615814631335" lon="7.00993638674783"><ele></ele><time>2019-8-5T15:20:26Z</time></trkpt>
<trkpt lat="46.59380390629308" lon="7.010633674810193"><ele></ele><time>2019-8-5T15:20:29Z</time></trkpt>
<trkpt lat="46.59331967824127" lon="7.011042048113203"><ele></ele><time>2019-8-5T15:20:32Z</time></trkpt>
<trkpt lat="46.592609580303524" lon="7.011191219515872"><ele></ele><time>2019-8-5T15:20:35Z</time></trkpt>
<trkpt lat="46.59203539593753" lon="7.011600291106755"><ele></ele><time>2019-8-5T15:20:38Z</time></trkpt>
<trkpt lat="46.591558343624584" lon="7.011525775017822"><ele></ele><time>2019-8-5T15:20:41Z</time></trkpt>
<trkpt lat="46.591289659070824" lon="7.0118410758177125"><ele></ele><time>2019-8-5T15:20:44Z</time></trkpt>
<trkpt lat="46.59095062774018" lon="7.012587539761832"><ele></ele><time>2019-8-5T15:20:47Z</time></trkpt>
<trkpt lat="46.59073454147367" lon="7.012537051919435"><ele></ele><time>2019-8-5T15:20:50Z</time></trkpt>
<trkpt lat="46.59033732106628" lon="7.012161779801485"><ele></ele><time>2019-8-5T15:20:53Z</time></trkpt>
<trkpt lat="46.590182975985314" lon="7.011784590876963"><ele></ele><time>2019-8-5T15:20:56Z</time></trkpt>
<trkpt lat="46.58962437566354" lon="7.01155413964957"><ele></ele><time>2019-8-5T15:20:59Z</time></trkpt>
<trkpt lat="46.58908936716766" lon="7.010423170850837"><ele></ele><time>2019-8-5T15:21:2Z</time></trkpt>
<trkpt lat="46.58805030718596" lon="7.009217948387612"><ele></ele><time>2019-8-5T15:21:5Z</time></trkpt>
<trkpt lat="46.587529016672846" lon="7.009339530549895"><ele></ele><time>2019-8-5T15:21:8Z</time></trkpt>
<trkpt lat="46.587123382978916" lon="7.0091209455213015"><ele></ele><time>2019-8-5T15:21:11Z</time></trkpt>
<trkpt lat="46.58661954017901" lon="7.009098862436992"><ele></ele><time>2019-8-5T15:21:14Z</time></trkpt>
<trkpt lat="46.58656398630752" lon="7.008681777462012"><ele></ele><time>2019-8-5T15:21:17Z</time></trkpt>
<trkpt lat="46.586641381638216" lon="7.007741722432881"><ele></ele><time>2019-8-5T15:21:20Z</time></trkpt>
<trkpt lat="46.58682820331303" lon="7.007192222431637"><ele></ele><time>2019-8-5T15:21:23Z</time></trkpt>
<trkpt lat="46.58681727194206" lon="7.006683445894203"><ele></ele><time>2019-8-5T15:21:26Z</time></trkpt>
<trkpt lat="46.586282414091805" lon="7.005604773104914"><ele></ele><time>2019-8-5T15:21:29Z</time></trkpt>
<trkpt lat="46.58506314464516" lon="7.004335919384827"><ele></ele><time>2019-8-5T15:21:32Z</time></trkpt>
<trkpt lat="46.584908723573285" lon="7.003945742675412"><ele></ele><time>2019-8-5T15:21:35Z</time></trkpt>
<trkpt lat="46.58511361786768" lon="7.003422195959853"><ele></ele><time>2019-8-5T15:21:38Z</time></trkpt>
<trkpt lat="46.58510281992537" lon="7.002952577261435"><ele></ele><time>2019-8-5T15:21:41Z</time></trkpt>
<trkpt lat="46.584757734295714" lon="7.002107290084319"><ele></ele><time>2019-8-5T15:21:44Z</time></trkpt>
<trkpt lat="46.58424243321429" lon="7.001446054357805"><ele></ele><time>2019-8-5T15:21:47Z</time></trkpt>
<trkpt lat="46.58386372024439" lon="7.001214276335033"><ele></ele><time>2019-8-5T15:21:50Z</time></trkpt>
<trkpt lat="46.58362149747203" lon="7.001385851991695"><ele></ele><time>2019-8-5T15:21:53Z</time></trkpt>
<trkpt lat="46.583317863697204" lon="7.001962379315055"><ele></ele><time>2019-8-5T15:21:56Z</time></trkpt>
<trkpt lat="46.58268753097828" lon="7.001797873714837"><ele></ele><time>2019-8-5T15:21:59Z</time></trkpt>
<trkpt lat="46.58152118353418" lon="7.000267829625191"><ele></ele><time>2019-8-5T15:22:2Z</time></trkpt>
<trkpt lat="46.58105236253119" lon="6.999997664930365"><ele></ele><time>2019-8-5T15:22:5Z</time></trkpt>
<trkpt lat="46.578620770562246" lon="6.9992868705780245"><ele></ele><time>2019-8-5T15:22:8Z</time></trkpt>
<trkpt lat="46.577427352056574" lon="6.997744171178578"><ele></ele><time>2019-8-5T15:22:11Z</time></trkpt>
<trkpt lat="46.57722091342033" lon="6.997863267713758"><ele></ele><time>2019-8-5T15:22:14Z</time></trkpt>
<trkpt lat="46.577169523628804" lon="6.998529006771552"><ele></ele><time>2019-8-5T15:22:17Z</time></trkpt>
<trkpt lat="46.57696540975877" lon="6.999248170285919"><ele></ele><time>2019-8-5T15:22:20Z</time></trkpt>
<trkpt lat="46.576714446912135" lon="6.999485030857267"><ele></ele><time>2019-8-5T15:22:23Z</time></trkpt>
<trkpt lat="46.57631869854279" lon="6.999501297645185"><ele></ele><time>2019-8-5T15:22:26Z</time></trkpt>
<trkpt lat="46.575937706528514" lon="6.998682552816683"><ele></ele><time>2019-8-5T15:22:29Z</time></trkpt>
<trkpt lat="46.57554548177935" lon="6.997289927608158"><ele></ele><time>2019-8-5T15:22:32Z</time></trkpt>
<trkpt lat="46.57499554233523" lon="6.996981347699766"><ele></ele><time>2019-8-5T15:22:35Z</time></trkpt>
<trkpt lat="46.57402063039605" lon="6.996115332645378"><ele></ele><time>2019-8-5T15:22:38Z</time></trkpt>
<trkpt lat="46.573437300808315" lon="6.996472320777213"><ele></ele><time>2019-8-5T15:22:41Z</time></trkpt>
<trkpt lat="46.573076313948015" lon="6.996175256036608"><ele></ele><time>2019-8-5T15:22:44Z</time></trkpt>
<trkpt lat="46.57289655799404" lon="6.996215863555208"><ele></ele><time>2019-8-5T15:22:47Z</time></trkpt>
<trkpt lat="46.572699523131895" lon="6.996439234044805"><ele></ele><time>2019-8-5T15:22:50Z</time></trkpt>
<trkpt lat="46.57262024131419" lon="6.996870348318281"><ele></ele><time>2019-8-5T15:22:53Z</time></trkpt>
<trkpt lat="46.5723783803164" lon="6.997133215083494"><ele></ele><time>2019-8-5T15:22:56Z</time></trkpt>
<trkpt lat="46.571711804528334" lon="6.996903874908424"><ele></ele><time>2019-8-5T15:22:59Z</time></trkpt>
<trkpt lat="46.570950085598746" lon="6.997653617837958"><ele></ele><time>2019-8-5T15:23:2Z</time></trkpt>
<trkpt lat="46.57076951769827" lon="6.997485522587452"><ele></ele><time>2019-8-5T15:23:5Z</time></trkpt>
<trkpt lat="46.57077617823215" lon="6.99688544723078"><ele></ele><time>2019-8-5T15:23:8Z</time></trkpt>
<trkpt lat="46.57055927175041" lon="6.996626345548511"><ele></ele><time>2019-8-5T15:23:11Z</time></trkpt>
<trkpt lat="46.570370875867894" lon="6.996758327296806"><ele></ele><time>2019-8-5T15:23:14Z</time></trkpt>
<trkpt lat="46.570067265309184" lon="6.997334739323992"><ele></ele><time>2019-8-5T15:23:17Z</time></trkpt>
<trkpt lat="46.56957388606799" lon="6.997690953051469"><ele></ele><time>2019-8-5T15:23:20Z</time></trkpt>
<trkpt lat="46.56881923284698" lon="6.997944946100096"><ele></ele><time>2019-8-5T15:23:23Z</time></trkpt>
<trkpt lat="46.568423028421506" lon="6.997843835233754"><ele></ele><time>2019-8-5T15:23:26Z</time></trkpt>
<trkpt lat="46.567895556664645" lon="6.996374258504574"><ele></ele><time>2019-8-5T15:23:29Z</time></trkpt>
<trkpt lat="46.56677334676079" lon="6.994648741791988"><ele></ele><time>2019-8-5T15:23:32Z</time></trkpt>
<trkpt lat="46.566564306450566" lon="6.994102659231898"><ele></ele><time>2019-8-5T15:23:35Z</time></trkpt>
<trkpt lat="46.56637100122529" lon="6.992982564642371"><ele></ele><time>2019-8-5T15:23:38Z</time></trkpt>
<trkpt lat="46.564214419625436" lon="6.991304869230992"><ele></ele><time>2019-8-5T15:23:41Z</time></trkpt>
<trkpt lat="46.56357250084695" lon="6.990488531876005"><ele></ele><time>2019-8-5T15:23:44Z</time></trkpt>
<trkpt lat="46.562576137330254" lon="6.988762225378033"><ele></ele><time>2019-8-5T15:23:47Z</time></trkpt>
<trkpt lat="46.55973189032689" lon="6.986099432063276"><ele></ele><time>2019-8-5T15:23:50Z</time></trkpt>
<trkpt lat="46.55834591770994" lon="6.985941521344203"><ele></ele><time>2019-8-5T15:23:53Z</time></trkpt>
<trkpt lat="46.55782288111519" lon="6.985619888079384"><ele></ele><time>2019-8-5T15:23:56Z</time></trkpt>
<trkpt lat="46.55622495169875" lon="6.984198852745009"><ele></ele><time>2019-8-5T15:23:59Z</time></trkpt>
<trkpt lat="46.55436241193117" lon="6.981854296939291"><ele></ele><time>2019-8-5T15:24:2Z</time></trkpt>
<trkpt lat="46.55304476789582" lon="6.9807961948316315"><ele></ele><time>2019-8-5T15:24:5Z</time></trkpt>
<trkpt lat="46.55225348595227" lon="6.98088114356588"><ele></ele><time>2019-8-5T15:24:8Z</time></trkpt>
<trkpt lat="46.551398130561566" lon="6.98069280831351"><ele></ele><time>2019-8-5T15:24:11Z</time></trkpt>
<trkpt lat="46.550523888308476" lon="6.980282975213339"><ele></ele><time>2019-8-5T15:24:14Z</time></trkpt>
<trkpt lat="46.54990499450258" lon="6.980731553593199"><ele></ele><time>2019-8-5T15:24:17Z</time></trkpt>
<trkpt lat="46.549068682682204" lon="6.980803841544771"><ele></ele><time>2019-8-5T15:24:20Z</time></trkpt>
<trkpt lat="46.548469354568155" lon="6.981643393151267"><ele></ele><time>2019-8-5T15:24:23Z</time></trkpt>
<trkpt lat="46.549190984619095" lon="6.982132755955155"><ele></ele><time>2019-8-5T15:24:26Z</time></trkpt>
<trkpt lat="46.55022614141657" lon="6.982293508296598"><ele></ele><time>2019-8-5T15:24:29Z</time></trkpt>
<trkpt lat="46.5509036298315" lon="6.982991894896528"><ele></ele><time>2019-8-5T15:24:32Z</time></trkpt>
<trkpt lat="46.55191085614467" lon="6.982918195316988"><ele></ele><time>2019-8-5T15:24:35Z</time></trkpt>
<trkpt lat="46.55203831102428" lon="6.98329526260808"><ele></ele><time>2019-8-5T15:24:38Z</time></trkpt>
<trkpt lat="46.551550308958184" lon="6.987237250220953"><ele></ele><time>2019-8-5T15:24:41Z</time></trkpt>
<trkpt lat="46.551087107780084" lon="6.988388572977446"><ele></ele><time>2019-8-5T15:24:44Z</time></trkpt>
<trkpt lat="46.55101793759317" lon="6.9890932654661535"><ele></ele><time>2019-8-5T15:24:47Z</time></trkpt>
<trkpt lat="46.550542987640355" lon="6.989553588249686"><ele></ele><time>2019-8-5T15:24:50Z</time></trkpt>
<trkpt lat="46.550337692558415" lon="6.989959505648137"><ele></ele><time>2019-8-5T15:24:53Z</time></trkpt>
<trkpt lat="46.55041202750831" lon="6.990558683036679"><ele></ele><time>2019-8-5T15:24:56Z</time></trkpt>
<trkpt lat="46.55030660490475" lon="6.991198469308405"><ele></ele><time>2019-8-5T15:24:59Z</time></trkpt>
<trkpt lat="46.55069592775031" lon="6.9918341576272445"><ele></ele><time>2019-8-5T15:25:2Z</time></trkpt>
<trkpt lat="46.55061738167876" lon="6.992447644396203"><ele></ele><time>2019-8-5T15:25:5Z</time></trkpt>
<trkpt lat="46.55011579052508" lon="6.992999426886816"><ele></ele><time>2019-8-5T15:25:8Z</time></trkpt>
<trkpt lat="46.549268578922714" lon="6.992589181598445"><ele></ele><time>2019-8-5T15:25:11Z</time></trkpt>
<trkpt lat="46.54916114644757" lon="6.9927204566363645"><ele></ele><time>2019-8-5T15:25:14Z</time></trkpt>
<trkpt lat="46.54909220532489" lon="6.993490309916771"><ele></ele><time>2019-8-5T15:25:17Z</time></trkpt>
<trkpt lat="46.548715727118115" lon="6.993832418754111"><ele></ele><time>2019-8-5T15:25:20Z</time></trkpt>
<trkpt lat="46.54823958243077" lon="6.993992804489453"><ele></ele><time>2019-8-5T15:25:23Z</time></trkpt>
<trkpt lat="46.54758720449487" lon="6.995093399316611"><ele></ele><time>2019-8-5T15:25:26Z</time></trkpt>
<trkpt lat="46.54732710152047" lon="6.995291110823277"><ele></ele><time>2019-8-5T15:25:29Z</time></trkpt>
<trkpt lat="46.54679591165" lon="6.995178130342763"><ele></ele><time>2019-8-5T15:25:32Z</time></trkpt>
<trkpt lat="46.54658411467206" lon="6.9939282126130085"><ele></ele><time>2019-8-5T15:25:35Z</time></trkpt>
<trkpt lat="46.54625792514637" lon="6.993331150844746"><ele></ele><time>2019-8-5T15:25:38Z</time></trkpt>
<trkpt lat="46.54512127107118" lon="6.992519149280725"><ele></ele><time>2019-8-5T15:25:41Z</time></trkpt>
<trkpt lat="46.5451739608892" lon="6.992192769737268"><ele></ele><time>2019-8-5T15:25:44Z</time></trkpt>
<trkpt lat="46.54599804729241" lon="6.991299372587195"><ele></ele><time>2019-8-5T15:25:47Z</time></trkpt>
<trkpt lat="46.54514461173197" lon="6.991593275642553"><ele></ele><time>2019-8-5T15:25:50Z</time></trkpt>
<trkpt lat="46.54400116257307" lon="6.991341995315129"><ele></ele><time>2019-8-5T15:25:53Z</time></trkpt>
<trkpt lat="46.54360587742115" lon="6.991475644491744"><ele></ele><time>2019-8-5T15:25:56Z</time></trkpt>
<trkpt lat="46.54317574074818" lon="6.9918964005365485"><ele></ele><time>2019-8-5T15:25:59Z</time></trkpt>
<trkpt lat="46.54316005980616" lon="6.9924832078388315"><ele></ele><time>2019-8-5T15:26:2Z</time></trkpt>
<trkpt lat="46.54280295884864" lon="6.9931771303464565"><ele></ele><time>2019-8-5T15:26:5Z</time></trkpt>
<trkpt lat="46.542175888091954" lon="6.993847193852134"><ele></ele><time>2019-8-5T15:26:8Z</time></trkpt>
<trkpt lat="46.541867791367345" lon="6.993276105880028"><ele></ele><time>2019-8-5T15:26:11Z</time></trkpt>
<trkpt lat="46.54196520433532" lon="6.992884192537849"><ele></ele><time>2019-8-5T15:26:14Z</time></trkpt>
<trkpt lat="46.54176402140949" lon="6.992051489460256"><ele></ele><time>2019-8-5T15:26:17Z</time></trkpt>
<trkpt lat="46.541062787686315" lon="6.992161584558037"><ele></ele><time>2019-8-5T15:26:20Z</time></trkpt>
<trkpt lat="46.54112354697856" lon="6.991600500168559"><ele></ele><time>2019-8-5T15:26:23Z</time></trkpt>
<trkpt lat="46.54096039501196" lon="6.991288969211669"><ele></ele><time>2019-8-5T15:26:26Z</time></trkpt>
<trkpt lat="46.540249137803094" lon="6.9911384240442915"><ele></ele><time>2019-8-5T15:26:29Z</time></trkpt>
<trkpt lat="46.53950929775776" lon="6.9905839914361305"><ele></ele><time>2019-8-5T15:26:32Z</time></trkpt>
<trkpt lat="46.53898415883827" lon="6.989727955599848"><ele></ele><time>2019-8-5T15:26:35Z</time></trkpt>
<trkpt lat="46.538335970840855" lon="6.989602984079598"><ele></ele><time>2019-8-5T15:26:38Z</time></trkpt>
<trkpt lat="46.538008982821225" lon="6.988810505269143"><ele></ele><time>2019-8-5T15:26:41Z</time></trkpt>
<trkpt lat="46.537361879869195" lon="6.988959291517205"><ele></ele><time>2019-8-5T15:26:44Z</time></trkpt>
<trkpt lat="46.537884855916346" lon="6.9892677998388955"><ele></ele><time>2019-8-5T15:26:47Z</time></trkpt>
<trkpt lat="46.53786748493302" lon="6.989424376494906"><ele></ele><time>2019-8-5T15:26:50Z</time></trkpt>
<trkpt lat="46.537300668803546" lon="6.989403020906454"><ele></ele><time>2019-8-5T15:26:53Z</time></trkpt>
<trkpt lat="46.536795890728875" lon="6.989146506079147"><ele></ele><time>2019-8-5T15:26:56Z</time></trkpt>
<trkpt lat="46.53616708814056" lon="6.989373346238956"><ele></ele><time>2019-8-5T15:26:59Z</time></trkpt>
<trkpt lat="46.535150499820354" lon="6.989355734604828"><ele></ele><time>2019-8-5T15:27:2Z</time></trkpt>
<trkpt lat="46.534267499444766" lon="6.988998098368332"><ele></ele><time>2019-8-5T15:27:5Z</time></trkpt>
<trkpt lat="46.53225252013027" lon="6.989014878162734"><ele></ele><time>2019-8-5T15:27:8Z</time></trkpt>
<trkpt lat="46.53139681528631" lon="6.988735245847668"><ele></ele><time>2019-8-5T15:27:11Z</time></trkpt>
<trkpt lat="46.52965356027181" lon="6.989218995608858"><ele></ele><time>2019-8-5T15:27:14Z</time></trkpt>
<trkpt lat="46.52938302504661" lon="6.989051805768002"><ele></ele><time>2019-8-5T15:27:17Z</time></trkpt>
<trkpt lat="46.529005836543796" lon="6.989211352707596"><ele></ele><time>2019-8-5T15:27:20Z</time></trkpt>
<trkpt lat="46.52805790109091" lon="6.98835902186781"><ele></ele><time>2019-8-5T15:27:23Z</time></trkpt>
<trkpt lat="46.527849192934454" lon="6.987904586439623"><ele></ele><time>2019-8-5T15:27:26Z</time></trkpt>
<trkpt lat="46.52766189440222" lon="6.988310189829221"><ele></ele><time>2019-8-5T15:27:29Z</time></trkpt>
<trkpt lat="46.52782639941784" lon="6.988960497309461"><ele></ele><time>2019-8-5T15:27:32Z</time></trkpt>
<trkpt lat="46.52780421495603" lon="6.990172805117774"><ele></ele><time>2019-8-5T15:27:35Z</time></trkpt>
<trkpt lat="46.527724493029844" lon="6.990486272692383"><ele></ele><time>2019-8-5T15:27:38Z</time></trkpt>
<trkpt lat="46.52721391537935" lon="6.991037914502266"><ele></ele><time>2019-8-5T15:27:41Z</time></trkpt>
<trkpt lat="46.52730906012571" lon="6.992353505306655"><ele></ele><time>2019-8-5T15:27:44Z</time></trkpt>
<trkpt lat="46.52752720722732" lon="6.992925176881014"><ele></ele><time>2019-8-5T15:27:47Z</time></trkpt>
<trkpt lat="46.52763076340819" lon="6.994097340326383"><ele></ele><time>2019-8-5T15:27:50Z</time></trkpt>
<trkpt lat="46.52761239384152" lon="6.996300158089542"><ele></ele><time>2019-8-5T15:27:53Z</time></trkpt>
<trkpt lat="46.52756843349906" lon="6.996561188567327"><ele></ele><time>2019-8-5T15:27:56Z</time></trkpt>
<trkpt lat="46.527282052523546" lon="6.9969415031809685"><ele></ele><time>2019-8-5T15:27:59Z</time></trkpt>
<trkpt lat="46.52646133212046" lon="6.996400819996754"><ele></ele><time>2019-8-5T15:28:2Z</time></trkpt>
<trkpt lat="46.525020482902725" lon="6.996008599959002"><ele></ele><time>2019-8-5T15:28:5Z</time></trkpt>
<trkpt lat="46.5241668816999" lon="6.996263217985818"><ele></ele><time>2019-8-5T15:28:8Z</time></trkpt>
<trkpt lat="46.523458782320354" lon="6.996920645088391"><ele></ele><time>2019-8-5T15:28:11Z</time></trkpt>
<trkpt lat="46.52275718778886" lon="6.9969394162592975"><ele></ele><time>2019-8-5T15:28:14Z</time></trkpt>
<trkpt lat="46.5219375855256" lon="6.996685476718603"><ele></ele><time>2019-8-5T15:28:17Z</time></trkpt>
<trkpt lat="46.52069295772354" lon="6.99586162319292"><ele></ele><time>2019-8-5T15:28:20Z</time></trkpt>
<trkpt lat="46.52035255541222" lon="6.996229303967113"><ele></ele><time>2019-8-5T15:28:23Z</time></trkpt>
<trkpt lat="46.52010393523244" lon="6.997065370767302"><ele></ele><time>2019-8-5T15:28:26Z</time></trkpt>
<trkpt lat="46.520343848437165" lon="6.99861419052926"><ele></ele><time>2019-8-5T15:28:29Z</time></trkpt>
<trkpt lat="46.52030963652722" lon="6.999070581156261"><ele></ele><time>2019-8-5T15:28:32Z</time></trkpt>
<trkpt lat="46.51977218208594" lon="6.999661379462558"><ele></ele><time>2019-8-5T15:28:35Z</time></trkpt>
<trkpt lat="46.51926757826685" lon="6.999443945362589"><ele></ele><time>2019-8-5T15:28:38Z</time></trkpt>
<trkpt lat="46.51869889392117" lon="6.998940346351041"><ele></ele><time>2019-8-5T15:28:41Z</time></trkpt>
<trkpt lat="46.517475637057764" lon="6.996669865470563"><ele></ele><time>2019-8-5T15:28:44Z</time></trkpt>
<trkpt lat="46.51595769036633" lon="6.997268669723332"><ele></ele><time>2019-8-5T15:28:47Z</time></trkpt>
<trkpt lat="46.51542406334199" lon="6.996530286784374"><ele></ele><time>2019-8-5T15:28:50Z</time></trkpt>
<trkpt lat="46.515541969846744" lon="6.996776903439987"><ele></ele><time>2019-8-5T15:28:53Z</time></trkpt>
<trkpt lat="46.51513905311587" lon="6.9972623291783105"><ele></ele><time>2019-8-5T15:28:56Z</time></trkpt>
<trkpt lat="46.51454606334705" lon="6.9974496005012465"><ele></ele><time>2019-8-5T15:28:59Z</time></trkpt>
<trkpt lat="46.51361958203002" lon="6.997470198641361"><ele></ele><time>2019-8-5T15:29:2Z</time></trkpt>
<trkpt lat="46.51321382240111" lon="6.997225941765593"><ele></ele><time>2019-8-5T15:29:5Z</time></trkpt>
<trkpt lat="46.51243543564253" lon="6.996007494958361"><ele></ele><time>2019-8-5T15:29:8Z</time></trkpt>
<trkpt lat="46.51177300679377" lon="6.9945405656038995"><ele></ele><time>2019-8-5T15:29:11Z</time></trkpt>
<trkpt lat="46.51142192868765" lon="6.9944783039851615"><ele></ele><time>2019-8-5T15:29:14Z</time></trkpt>
<trkpt lat="46.51044714797623" lon="6.993652438087968"><ele></ele><time>2019-8-5T15:29:17Z</time></trkpt>
<trkpt lat="46.50993000137076" lon="6.992536180818708"><ele></ele><time>2019-8-5T15:29:20Z</time></trkpt>
<trkpt lat="46.50925657556651" lon="6.990574346244218"><ele></ele><time>2019-8-5T15:29:23Z</time></trkpt>
<trkpt lat="46.509163940093536" lon="6.989897601829672"><ele></ele><time>2019-8-5T15:29:26Z</time></trkpt>
<trkpt lat="46.509251312995204" lon="6.989245420278039"><ele></ele><time>2019-8-5T15:29:29Z</time></trkpt>
<trkpt lat="46.509114054535196" lon="6.988660253506844"><ele></ele><time>2019-8-5T15:29:32Z</time></trkpt>
<trkpt lat="46.509348039781415" lon="6.988684362626741"><ele></ele><time>2019-8-5T15:29:35Z</time></trkpt>
<trkpt lat="46.51055756449375" lon="6.989716641611724"><ele></ele><time>2019-8-5T15:29:38Z</time></trkpt>
<trkpt lat="46.510728684553925" lon="6.989767337320051"><ele></ele><time>2019-8-5T15:29:41Z</time></trkpt>
<trkpt lat="46.510818122906606" lon="6.989636299172443"><ele></ele><time>2019-8-5T15:29:44Z</time></trkpt>
<trkpt lat="46.510232179038084" lon="6.989328465338273"><ele></ele><time>2019-8-5T15:29:47Z</time></trkpt>
<trkpt lat="46.509617696414054" lon="6.988629999613881"><ele></ele><time>2019-8-5T15:29:50Z</time></trkpt>
<trkpt lat="46.50958915716361" lon="6.988239361470884"><ele></ele><time>2019-8-5T15:29:53Z</time></trkpt>
<trkpt lat="46.50881274968344" lon="6.987542268561203"><ele></ele><time>2019-8-5T15:29:56Z</time></trkpt>
<trkpt lat="46.50889339753351" lon="6.987463420903519"><ele></ele><time>2019-8-5T15:29:59Z</time></trkpt>
<trkpt lat="46.50858474876818" lon="6.986762435182153"><ele></ele><time>2019-8-5T15:30:2Z</time></trkpt>
<trkpt lat="46.50815078366574" lon="6.986218853560412"><ele></ele><time>2019-8-5T15:30:5Z</time></trkpt>
<trkpt lat="46.50804153734768" lon="6.985894047854591"><ele></ele><time>2019-8-5T15:30:8Z</time></trkpt>
<trkpt lat="46.50747242782943" lon="6.98529949786541"><ele></ele><time>2019-8-5T15:30:11Z</time></trkpt>
<trkpt lat="46.50739032170548" lon="6.985013556150766"><ele></ele><time>2019-8-5T15:30:14Z</time></trkpt>
<trkpt lat="46.50691199746261" lon="6.984626716085196"><ele></ele><time>2019-8-5T15:30:17Z</time></trkpt>
<trkpt lat="46.50636243955878" lon="6.9844228799594115"><ele></ele><time>2019-8-5T15:30:20Z</time></trkpt>
<trkpt lat="46.50625318809522" lon="6.9840980886080954"><ele></ele><time>2019-8-5T15:30:23Z</time></trkpt>
<trkpt lat="46.505964235865264" lon="6.983826924957478"><ele></ele><time>2019-8-5T15:30:26Z</time></trkpt>
<trkpt lat="46.50552581036686" lon="6.984416886069838"><ele></ele><time>2019-8-5T15:30:29Z</time></trkpt>
<trkpt lat="46.505002977153644" lon="6.984147692004797"><ele></ele><time>2019-8-5T15:30:32Z</time></trkpt>
<trkpt lat="46.50414492587503" lon="6.9810542723360705"><ele></ele><time>2019-8-5T15:30:35Z</time></trkpt>
<trkpt lat="46.50332086050683" lon="6.9797063716606464"><ele></ele><time>2019-8-5T15:30:38Z</time></trkpt>
<trkpt lat="46.50312427926919" lon="6.980033732785394"><ele></ele><time>2019-8-5T15:30:41Z</time></trkpt>
<trkpt lat="46.503197876685824" lon="6.98043696570041"><ele></ele><time>2019-8-5T15:30:44Z</time></trkpt>
<trkpt lat="46.503127861251386" lon="6.980919582533247"><ele></ele><time>2019-8-5T15:30:47Z</time></trkpt>
<trkpt lat="46.502833430574526" lon="6.9815213455975815"><ele></ele><time>2019-8-5T15:30:50Z</time></trkpt>
<trkpt lat="46.50279965481951" lon="6.982068789278718"><ele></ele><time>2019-8-5T15:30:53Z</time></trkpt>
<trkpt lat="46.50253052605236" lon="6.982253448732206"><ele></ele><time>2019-8-5T15:30:56Z</time></trkpt>
<trkpt lat="46.50244893721785" lon="6.982097808145963"><ele></ele><time>2019-8-5T15:30:59Z</time></trkpt>
<trkpt lat="46.50255283644427" lon="6.981093811893275"><ele></ele><time>2019-8-5T15:31:2Z</time></trkpt>
<trkpt lat="46.50248013622081" lon="6.98091204268804"><ele></ele><time>2019-8-5T15:31:5Z</time></trkpt>
<trkpt lat="46.50190216311573" lon="6.980356763181388"><ele></ele><time>2019-8-5T15:31:8Z</time></trkpt>
<trkpt lat="46.501873542659084" lon="6.979953158172128"><ele></ele><time>2019-8-5T15:31:11Z</time></trkpt>
<trkpt lat="46.501529024088924" lon="6.97929169256041"><ele></ele><time>2019-8-5T15:31:14Z</time></trkpt>
<trkpt lat="46.501059411388376" lon="6.978839734870263"><ele></ele><time>2019-8-5T15:31:17Z</time></trkpt>
<trkpt lat="46.501604747395696" lon="6.978001347575716"><ele></ele><time>2019-8-5T15:31:20Z</time></trkpt>
<trkpt lat="46.50187079382107" lon="6.977061110084556"><ele></ele><time>2019-8-5T15:31:23Z</time></trkpt>
<trkpt lat="46.50151970599647" lon="6.976998973208027"><ele></ele><time>2019-8-5T15:31:26Z</time></trkpt>
<trkpt lat="46.50156383384015" lon="6.9767901597354545"><ele></ele><time>2019-8-5T15:31:29Z</time></trkpt>
<trkpt lat="46.500109929951236" lon="6.975421733534504"><ele></ele><time>2019-8-5T15:31:32Z</time></trkpt>
<trkpt lat="46.49784818104933" lon="6.974490197476657"><ele></ele><time>2019-8-5T15:31:35Z</time></trkpt>
<trkpt lat="46.497075746165535" lon="6.974783409141393"><ele></ele><time>2019-8-5T15:31:38Z</time></trkpt>
<trkpt lat="46.49659818731766" lon="6.9745921175370595"><ele></ele><time>2019-8-5T15:31:41Z</time></trkpt>
<trkpt lat="46.49617582802029" lon="6.974699952647703"><ele></ele><time>2019-8-5T15:31:44Z</time></trkpt>
<trkpt lat="46.495381826832954" lon="6.974120609286074"><ele></ele><time>2019-8-5T15:31:47Z</time></trkpt>
<trkpt lat="46.4946675514432" lon="6.973241007394333"><ele></ele><time>2019-8-5T15:31:50Z</time></trkpt>
<trkpt lat="46.49444957281748" lon="6.972734887611358"><ele></ele><time>2019-8-5T15:31:53Z</time></trkpt>
<trkpt lat="46.49434267899216" lon="6.9708080287185865"><ele></ele><time>2019-8-5T15:31:56Z</time></trkpt>
<trkpt lat="46.49466183001969" lon="6.969672036440209"><ele></ele><time>2019-8-5T15:31:59Z</time></trkpt>
<trkpt lat="46.49474962663512" lon="6.969150248700261"><ele></ele><time>2019-8-5T15:32:2Z</time></trkpt>
<trkpt lat="46.49467717723379" lon="6.969033647519446"><ele></ele><time>2019-8-5T15:32:5Z</time></trkpt>
<trkpt lat="46.49442546673765" lon="6.969074911698916"><ele></ele><time>2019-8-5T15:32:8Z</time></trkpt>
<trkpt lat="46.49407911991687" lon="6.970159036411681"><ele></ele><time>2019-8-5T15:32:11Z</time></trkpt>
<trkpt lat="46.49352586746523" lon="6.971244936796438"><ele></ele><time>2019-8-5T15:32:14Z</time></trkpt>
<trkpt lat="46.49325697105443" lon="6.9714817176985"><ele></ele><time>2019-8-5T15:32:17Z</time></trkpt>
<trkpt lat="46.4931216096363" lon="6.971378685896304"><ele></ele><time>2019-8-5T15:32:20Z</time></trkpt>
<trkpt lat="46.49278334477362" lon="6.970066068650116"><ele></ele><time>2019-8-5T15:32:23Z</time></trkpt>
<trkpt lat="46.49244830332048" lon="6.969534945110073"><ele></ele><time>2019-8-5T15:32:26Z</time></trkpt>
<trkpt lat="46.4922685561897" lon="6.969575580610896"><ele></ele><time>2019-8-5T15:32:29Z</time></trkpt>
<trkpt lat="46.49199131449301" lon="6.969968736501797"><ele></ele><time>2019-8-5T15:32:32Z</time></trkpt>
<trkpt lat="46.49139686054262" lon="6.96979154429949"><ele></ele><time>2019-8-5T15:32:35Z</time></trkpt>
<trkpt lat="46.491278679594345" lon="6.96949299901887"><ele></ele><time>2019-8-5T15:32:38Z</time></trkpt>
<trkpt lat="46.492061467221" lon="6.967363128371244"><ele></ele><time>2019-8-5T15:32:41Z</time></trkpt>
<trkpt lat="46.492794933395324" lon="6.9642046387295515"><ele></ele><time>2019-8-5T15:32:44Z</time></trkpt>
<trkpt lat="46.493099632681115" lon="6.963928433332205"><ele></ele><time>2019-8-5T15:32:47Z</time></trkpt>
<trkpt lat="46.493189859955784" lon="6.963992767100189"><ele></ele><time>2019-8-5T15:32:50Z</time></trkpt>
<trkpt lat="46.493278941100144" lon="6.963783579927697"><ele></ele><time>2019-8-5T15:32:53Z</time></trkpt>
<trkpt lat="46.493387159339704" lon="6.963847755598298"><ele></ele><time>2019-8-5T15:32:56Z</time></trkpt>
<trkpt lat="46.49315365990625" lon="6.963940983993921"><ele></ele><time>2019-8-5T15:32:59Z</time></trkpt>
<trkpt lat="46.49338775967561" lon="6.963991028869802"><ele></ele><time>2019-8-5T15:33:2Z</time></trkpt>
<trkpt lat="46.493206704590484" lon="6.963719088291141"><ele></ele><time>2019-8-5T15:33:5Z</time></trkpt>
<trkpt lat="46.49326901738589" lon="6.963562237130705"><ele></ele><time>2019-8-5T15:33:8Z</time></trkpt>
<trkpt lat="46.49349428570674" lon="6.963651434154352"><ele></ele><time>2019-8-5T15:33:11Z</time></trkpt>
<trkpt lat="46.49336829491798" lon="6.963639516256439"><ele></ele><time>2019-8-5T15:33:14Z</time></trkpt>
<trkpt lat="46.49409271636256" lon="6.96263018562945"><ele></ele><time>2019-8-5T15:33:17Z</time></trkpt>
<trkpt lat="46.49448446205611" lon="6.961662841334439"><ele></ele><time>2019-8-5T15:33:20Z</time></trkpt>
<trkpt lat="46.49540627093242" lon="6.960534485027868"><ele></ele><time>2019-8-5T15:33:23Z</time></trkpt>
<trkpt lat="46.495628406802524" lon="6.959881226394362"><ele></ele><time>2019-8-5T15:33:26Z</time></trkpt>
<trkpt lat="46.49591759131979" lon="6.9580680591907065"><ele></ele><time>2019-8-5T15:33:29Z</time></trkpt>
<trkpt lat="46.496532577985704" lon="6.9567209030981205"><ele></ele><time>2019-8-5T15:33:32Z</time></trkpt>
<trkpt lat="46.49662070326311" lon="6.95629025562328"><ele></ele><time>2019-8-5T15:33:35Z</time></trkpt>
<trkpt lat="46.496583265707564" lon="6.953841682965018"><ele></ele><time>2019-8-5T15:33:38Z</time></trkpt>
<trkpt lat="46.49691107476468" lon="6.952666385759916"><ele></ele><time>2019-8-5T15:33:41Z</time></trkpt>
<trkpt lat="46.49723534056338" lon="6.950670451700774"><ele></ele><time>2019-8-5T15:33:44Z</time></trkpt>
<trkpt lat="46.496996910686605" lon="6.949617482143118"><ele></ele><time>2019-8-5T15:33:47Z</time></trkpt>
<trkpt lat="46.497220705067434" lon="6.94728375629695"><ele></ele><time>2019-8-5T15:33:50Z</time></trkpt>
<trkpt lat="46.49705415059718" lon="6.946217120496295"><ele></ele><time>2019-8-5T15:33:53Z</time></trkpt>
<trkpt lat="46.496592098069435" lon="6.945465816331443"><ele></ele><time>2019-8-5T15:33:56Z</time></trkpt>
<trkpt lat="46.49542919198152" lon="6.944903292257311"><ele></ele><time>2019-8-5T15:33:59Z</time></trkpt>
<trkpt lat="46.49398912878716" lon="6.944734091935193"><ele></ele><time>2019-8-5T15:34:2Z</time></trkpt>
<trkpt lat="46.493685284797564" lon="6.943134742804234"><ele></ele><time>2019-8-5T15:34:5Z</time></trkpt>
<trkpt lat="46.492558945300644" lon="6.940657266763764"><ele></ele><time>2019-8-5T15:34:8Z</time></trkpt>
<trkpt lat="46.49207961022951" lon="6.940075556981226"><ele></ele><time>2019-8-5T15:34:11Z</time></trkpt>
<trkpt lat="46.49197526665652" lon="6.93885216878259"><ele></ele><time>2019-8-5T15:34:14Z</time></trkpt>
<trkpt lat="46.49227633738561" lon="6.937768302844764"><ele></ele><time>2019-8-5T15:34:17Z</time></trkpt>
<trkpt lat="46.49219290140861" lon="6.93720899840246"><ele></ele><time>2019-8-5T15:34:20Z</time></trkpt>
<trkpt lat="46.49112081049482" lon="6.934822380569776"><ele></ele><time>2019-8-5T15:34:23Z</time></trkpt>
<trkpt lat="46.49089233139687" lon="6.934016975702221"><ele></ele><time>2019-8-5T15:34:26Z</time></trkpt>
<trkpt lat="46.49087213521506" lon="6.933522223811281"><ele></ele><time>2019-8-5T15:34:29Z</time></trkpt>
<trkpt lat="46.49075757409201" lon="6.934057308034594"><ele></ele><time>2019-8-5T15:34:32Z</time></trkpt>
<trkpt lat="46.49074572309057" lon="6.935438038710797"><ele></ele><time>2019-8-5T15:34:35Z</time></trkpt>
<trkpt lat="46.490807938949615" lon="6.935268137949598"><ele></ele><time>2019-8-5T15:34:38Z</time></trkpt>
<trkpt lat="46.4906556531771" lon="6.935412827898583"><ele></ele><time>2019-8-5T15:34:41Z</time></trkpt>
<trkpt lat="46.49056517827375" lon="6.9352964482282555"><ele></ele><time>2019-8-5T15:34:44Z</time></trkpt>
<trkpt lat="46.490482193458476" lon="6.934841358180021"><ele></ele><time>2019-8-5T15:34:47Z</time></trkpt>
<trkpt lat="46.49009284074322" lon="6.934271906760335"><ele></ele><time>2019-8-5T15:34:50Z</time></trkpt>
<trkpt lat="46.48879285711411" lon="6.933242097679889"><ele></ele><time>2019-8-5T15:34:53Z</time></trkpt>
<trkpt lat="46.487675390624204" lon="6.932796707045201"><ele></ele><time>2019-8-5T15:34:56Z</time></trkpt>
<trkpt lat="46.48683016985629" lon="6.932882759640966"><ele></ele><time>2019-8-5T15:34:59Z</time></trkpt>
<trkpt lat="46.4859660279288" lon="6.932760609442894"><ele></ele><time>2019-8-5T15:35:2Z</time></trkpt>
<trkpt lat="46.48573133270244" lon="6.9325804767412915"><ele></ele><time>2019-8-5T15:35:5Z</time></trkpt>
<trkpt lat="46.48553122182615" lon="6.932087458516357"><ele></ele><time>2019-8-5T15:35:8Z</time></trkpt>
<trkpt lat="46.4852971661762" lon="6.932050581681496"><ele></ele><time>2019-8-5T15:35:11Z</time></trkpt>
<trkpt lat="46.48510907743012" lon="6.932234671533531"><ele></ele><time>2019-8-5T15:35:14Z</time></trkpt>
<trkpt lat="46.48502974796623" lon="6.932600068394063"><ele></ele><time>2019-8-5T15:35:17Z</time></trkpt>
<trkpt lat="46.48525992077435" lon="6.933783042934027"><ele></ele><time>2019-8-5T15:35:20Z</time></trkpt>
<trkpt lat="46.484783145143645" lon="6.9358061048525546"><ele></ele><time>2019-8-5T15:35:23Z</time></trkpt>
<trkpt lat="46.48489218820039" lon="6.9360525333349194"><ele></ele><time>2019-8-5T15:35:26Z</time></trkpt>
<trkpt lat="46.48625885708998" lon="6.9358965657720715"><ele></ele><time>2019-8-5T15:35:29Z</time></trkpt>
<trkpt lat="46.48641264600151" lon="6.9360904904730765"><ele></ele><time>2019-8-5T15:35:32Z</time></trkpt>
<trkpt lat="46.486478558249935" lon="6.936754085802459"><ele></ele><time>2019-8-5T15:35:35Z</time></trkpt>
<trkpt lat="46.48667778413607" lon="6.937051781870134"><ele></ele><time>2019-8-5T15:35:38Z</time></trkpt>
<trkpt lat="46.48651471302032" lon="6.936792821187741"><ele></ele><time>2019-8-5T15:35:41Z</time></trkpt>
<trkpt lat="46.48634921583314" lon="6.935986890947511"><ele></ele><time>2019-8-5T15:35:44Z</time></trkpt>
<trkpt lat="46.48612352115459" lon="6.935806659307698"><ele></ele><time>2019-8-5T15:35:47Z</time></trkpt>
<trkpt lat="46.48526094283116" lon="6.9360360812477895"><ele></ele><time>2019-8-5T15:35:50Z</time></trkpt>
<trkpt lat="46.48485609095242" lon="6.9360268223666655"><ele></ele><time>2019-8-5T15:35:53Z</time></trkpt>
<trkpt lat="46.48473805241524" lon="6.935780477784419"><ele></ele><time>2019-8-5T15:35:56Z</time></trkpt>
<trkpt lat="46.48476341957344" lon="6.935415590020494"><ele></ele><time>2019-8-5T15:35:59Z</time></trkpt>
<trkpt lat="46.485304781817696" lon="6.933756577114846"><ele></ele><time>2019-8-5T15:36:2Z</time></trkpt>
<trkpt lat="46.485057315852714" lon="6.932730043825375"><ele></ele><time>2019-8-5T15:36:5Z</time></trkpt>
<trkpt lat="46.48507361958518" lon="6.932352213922447"><ele></ele><time>2019-8-5T15:36:8Z</time></trkpt>
<trkpt lat="46.48495685368823" lon="6.932392377570345"><ele></ele><time>2019-8-5T15:36:11Z</time></trkpt>
<trkpt lat="46.485225435721915" lon="6.932103347503846"><ele></ele><time>2019-8-5T15:36:14Z</time></trkpt>
<trkpt lat="46.4855039444017" lon="6.932022596843208"><ele></ele><time>2019-8-5T15:36:17Z</time></trkpt>
<trkpt lat="46.48584961074274" lon="6.9328789108583235"><ele></ele><time>2019-8-5T15:36:20Z</time></trkpt>
<trkpt lat="46.4863801080687" lon="6.932821852410703"><ele></ele><time>2019-8-5T15:36:23Z</time></trkpt>
<trkpt lat="46.48699249436944" lon="6.932972407509692"><ele></ele><time>2019-8-5T15:36:26Z</time></trkpt>
<trkpt lat="46.487783626396286" lon="6.932860814146553"><ele></ele><time>2019-8-5T15:36:29Z</time></trkpt>
<trkpt lat="46.488783861692795" lon="6.933242181791847"><ele></ele><time>2019-8-5T15:36:32Z</time></trkpt>
<trkpt lat="46.4901197110498" lon="6.9342456068790055"><ele></ele><time>2019-8-5T15:36:35Z</time></trkpt>
<trkpt lat="46.49058143264292" lon="6.934905556529819"><ele></ele><time>2019-8-5T15:36:38Z</time></trkpt>
<trkpt lat="46.49063731522535" lon="6.93533485049533"><ele></ele><time>2019-8-5T15:36:41Z</time></trkpt>
<trkpt lat="46.49079070020202" lon="6.935437619959477"><ele></ele><time>2019-8-5T15:36:44Z</time></trkpt>
<trkpt lat="46.490861911482426" lon="6.935267635278013"><ele></ele><time>2019-8-5T15:36:47Z</time></trkpt>
<trkpt lat="46.490775506931534" lon="6.934044115891632"><ele></ele><time>2019-8-5T15:36:50Z</time></trkpt>
<trkpt lat="46.49090712959994" lon="6.933300475884324"><ele></ele><time>2019-8-5T15:36:53Z</time></trkpt>
<trkpt lat="46.4909445630436" lon="6.933625745051889"><ele></ele><time>2019-8-5T15:36:56Z</time></trkpt>
<trkpt lat="46.491386731487005" lon="6.933934210418982"><ele></ele><time>2019-8-5T15:36:59Z</time></trkpt>
<trkpt lat="46.491674991036874" lon="6.934022693172428"><ele></ele><time>2019-8-5T15:37:2Z</time></trkpt>
<trkpt lat="46.492178096440746" lon="6.933874720139331"><ele></ele><time>2019-8-5T15:37:5Z</time></trkpt>
<trkpt lat="46.491932723713965" lon="6.933316936594493"><ele></ele><time>2019-8-5T15:37:8Z</time></trkpt>
<trkpt lat="46.49136281520403" lon="6.932605897283216"><ele></ele><time>2019-8-5T15:37:11Z</time></trkpt>
<trkpt lat="46.49069529197233" lon="6.932195356394086"><ele></ele><time>2019-8-5T15:37:14Z</time></trkpt>
<trkpt lat="46.49005580199133" lon="6.93201900470685"><ele></ele><time>2019-8-5T15:37:17Z</time></trkpt>
<trkpt lat="46.49060685087827" lon="6.932534826951629"><ele></ele><time>2019-8-5T15:37:20Z</time></trkpt>
<trkpt lat="46.49086081605355" lon="6.933001339732144"><ele></ele><time>2019-8-5T15:37:23Z</time></trkpt>
<trkpt lat="46.49089912147758" lon="6.933521971605214"><ele></ele><time>2019-8-5T15:37:26Z</time></trkpt>
<trkpt lat="46.49074730225989" lon="6.933770860121022"><ele></ele><time>2019-8-5T15:37:29Z</time></trkpt>
<trkpt lat="46.490754255714336" lon="6.935333761519784"><ele></ele><time>2019-8-5T15:37:32Z</time></trkpt>
<trkpt lat="46.490637373080254" lon="6.935347874647209"><ele></ele><time>2019-8-5T15:37:35Z</time></trkpt>
<trkpt lat="46.49047308220901" lon="6.9348153938052395"><ele></ele><time>2019-8-5T15:37:38Z</time></trkpt>
<trkpt lat="46.489857973948055" lon="6.934052681890567"><ele></ele><time>2019-8-5T15:37:41Z</time></trkpt>
<trkpt lat="46.48863964445477" lon="6.933178409233503"><ele></ele><time>2019-8-5T15:37:44Z</time></trkpt>
<trkpt lat="46.48759425738492" lon="6.932758394450295"><ele></ele><time>2019-8-5T15:37:47Z</time></trkpt>
<trkpt lat="46.4868481606996" lon="6.932882591303649"><ele></ele><time>2019-8-5T15:37:50Z</time></trkpt>
<trkpt lat="46.48597490704545" lon="6.932734479199662"><ele></ele><time>2019-8-5T15:37:53Z</time></trkpt>
<trkpt lat="46.48577654248641" lon="6.9326321475749015"><ele></ele><time>2019-8-5T15:37:56Z</time></trkpt>
<trkpt lat="46.48563992372671" lon="6.932255745234613"><ele></ele><time>2019-8-5T15:37:59Z</time></trkpt>
<trkpt lat="46.48542310207707" lon="6.932049401415879"><ele></ele><time>2019-8-5T15:38:2Z</time></trkpt>
<trkpt lat="46.48491193477138" lon="6.93240582157776"><ele></ele><time>2019-8-5T15:38:5Z</time></trkpt>
<trkpt lat="46.48336402377571" lon="6.932264042490517"><ele></ele><time>2019-8-5T15:38:8Z</time></trkpt>
<trkpt lat="46.48206189829427" lon="6.932771100055678"><ele></ele><time>2019-8-5T15:38:11Z</time></trkpt>
<trkpt lat="46.48133008103804" lon="6.9340801938007735"><ele></ele><time>2019-8-5T15:38:14Z</time></trkpt>
<trkpt lat="46.480309527146254" lon="6.935196606894771"><ele></ele><time>2019-8-5T15:38:17Z</time></trkpt>
<trkpt lat="46.48001666767268" lon="6.936097861673695"><ele></ele><time>2019-8-5T15:38:20Z</time></trkpt>
<trkpt lat="46.47963805087956" lon="6.935919072754833"><ele></ele><time>2019-8-5T15:38:23Z</time></trkpt>
<trkpt lat="46.47942071547414" lon="6.9355955440438075"><ele></ele><time>2019-8-5T15:38:26Z</time></trkpt>
<trkpt lat="46.47816797919042" lon="6.935073311695372"><ele></ele><time>2019-8-5T15:38:29Z</time></trkpt>
<trkpt lat="46.4776252415836" lon="6.934401245952778"><ele></ele><time>2019-8-5T15:38:32Z</time></trkpt>
<trkpt lat="46.47658960809715" lon="6.934150479064785"><ele></ele><time>2019-8-5T15:38:35Z</time></trkpt>
<trkpt lat="46.47557125110064" lon="6.935761573237671"><ele></ele><time>2019-8-5T15:38:38Z</time></trkpt>
<trkpt lat="46.47546129422444" lon="6.93733814187215"><ele></ele><time>2019-8-5T15:38:41Z</time></trkpt>
<trkpt lat="46.47521091999446" lon="6.937679008935074"><ele></ele><time>2019-8-5T15:38:44Z</time></trkpt>
<trkpt lat="46.47528374705887" lon="6.937873649039069"><ele></ele><time>2019-8-5T15:38:47Z</time></trkpt>
<trkpt lat="46.47519822080286" lon="6.938877056305512"><ele></ele><time>2019-8-5T15:38:50Z</time></trkpt>
<trkpt lat="46.474820125499015" lon="6.938815447036618"><ele></ele><time>2019-8-5T15:38:53Z</time></trkpt>
<trkpt lat="46.474649901705135" lon="6.938973270899889"><ele></ele><time>2019-8-5T15:38:56Z</time></trkpt>
<trkpt lat="46.47431592174575" lon="6.938715942374915"><ele></ele><time>2019-8-5T15:38:59Z</time></trkpt>
<trkpt lat="46.47402027905694" lon="6.938992110677613"><ele></ele><time>2019-8-5T15:39:2Z</time></trkpt>
<trkpt lat="46.47401421092968" lon="6.939656221908438"><ele></ele><time>2019-8-5T15:39:5Z</time></trkpt>
<trkpt lat="46.473530693569806" lon="6.940168486848933"><ele></ele><time>2019-8-5T15:39:8Z</time></trkpt>
<trkpt lat="46.47339713690219" lon="6.940482211198348"><ele></ele><time>2019-8-5T15:39:11Z</time></trkpt>
<trkpt lat="46.47335599316086" lon="6.94135496576851"><ele></ele><time>2019-8-5T15:39:14Z</time></trkpt>
<trkpt lat="46.47277083272579" lon="6.941256184967428"><ele></ele><time>2019-8-5T15:39:17Z</time></trkpt>
<trkpt lat="46.4711892369855" lon="6.941635295164953"><ele></ele><time>2019-8-5T15:39:20Z</time></trkpt>
<trkpt lat="46.46970095992161" lon="6.9427816853576845"><ele></ele><time>2019-8-5T15:39:23Z</time></trkpt>
<trkpt lat="46.469213267597965" lon="6.94234349393112"><ele></ele><time>2019-8-5T15:39:26Z</time></trkpt>
<trkpt lat="46.46823213767182" lon="6.94220928744621"><ele></ele><time>2019-8-5T15:39:29Z</time></trkpt>
<trkpt lat="46.46732165773543" lon="6.941774998196451"><ele></ele><time>2019-8-5T15:39:32Z</time></trkpt>
<trkpt lat="46.46695347314383" lon="6.941921590425188"><ele></ele><time>2019-8-5T15:39:35Z</time></trkpt>
<trkpt lat="46.46685760459487" lon="6.942625495288467"><ele></ele><time>2019-8-5T15:39:38Z</time></trkpt>
<trkpt lat="46.467090288124" lon="6.944406966566878"><ele></ele><time>2019-8-5T15:39:41Z</time></trkpt>
<trkpt lat="46.4676822515948" lon="6.946068008160739"><ele></ele><time>2019-8-5T15:39:44Z</time></trkpt>
<trkpt lat="46.467692605586876" lon="6.9463803737340335"><ele></ele><time>2019-8-5T15:39:47Z</time></trkpt>
<trkpt lat="46.468903984239155" lon="6.947749406638496"><ele></ele><time>2019-8-5T15:39:50Z</time></trkpt>
<trkpt lat="46.46899636379081" lon="6.948308405274185"><ele></ele><time>2019-8-5T15:39:53Z</time></trkpt>
<trkpt lat="46.46883805034608" lon="6.949143084863196"><ele></ele><time>2019-8-5T15:39:56Z</time></trkpt>
<trkpt lat="46.468010019771754" lon="6.949046427487765"><ele></ele><time>2019-8-5T15:39:59Z</time></trkpt>
<trkpt lat="46.467225952759215" lon="6.948715032038289"><ele></ele><time>2019-8-5T15:40:2Z</time></trkpt>
<trkpt lat="46.46709640904246" lon="6.947882988766756"><ele></ele><time>2019-8-5T15:40:5Z</time></trkpt>
<trkpt lat="46.46666349939588" lon="6.947626539782683"><ele></ele><time>2019-8-5T15:40:8Z</time></trkpt>
<trkpt lat="46.46631081380369" lon="6.947200121205982"><ele></ele><time>2019-8-5T15:40:11Z</time></trkpt>
<trkpt lat="46.46470809997628" lon="6.946863189853979"><ele></ele><time>2019-8-5T15:40:14Z</time></trkpt>
<trkpt lat="46.46386960126821" lon="6.946428195574242"><ele></ele><time>2019-8-5T15:40:17Z</time></trkpt>
<trkpt lat="46.46363430484343" lon="6.946104882752864"><ele></ele><time>2019-8-5T15:40:20Z</time></trkpt>
<trkpt lat="46.463612517063936" lon="6.945232862979683"><ele></ele><time>2019-8-5T15:40:23Z</time></trkpt>
<trkpt lat="46.463442454391085" lon="6.945429686905666"><ele></ele><time>2019-8-5T15:40:26Z</time></trkpt>
<trkpt lat="46.46360403204845" lon="6.945350104032814"><ele></ele><time>2019-8-5T15:40:29Z</time></trkpt>
<trkpt lat="46.46366722692436" lon="6.945401600308145"><ele></ele><time>2019-8-5T15:40:32Z</time></trkpt>
<trkpt lat="46.46348777173699" lon="6.945507382473302"><ele></ele><time>2019-8-5T15:40:35Z</time></trkpt>
<trkpt lat="46.463703605543124" lon="6.945492395903682"><ele></ele><time>2019-8-5T15:40:38Z</time></trkpt>
<trkpt lat="46.46288660746399" lon="6.945864351119084"><ele></ele><time>2019-8-5T15:40:41Z</time></trkpt>
<trkpt lat="46.46286103687821" lon="6.946190034186948"><ele></ele><time>2019-8-5T15:40:44Z</time></trkpt>
<trkpt lat="46.463124789782476" lon="6.946851553446793"><ele></ele><time>2019-8-5T15:40:47Z</time></trkpt>
<trkpt lat="46.46297203692556" lon="6.946891996798479"><ele></ele><time>2019-8-5T15:40:50Z</time></trkpt>
<trkpt lat="46.46312495937935" lon="6.946890606096818"><ele></ele><time>2019-8-5T15:40:53Z</time></trkpt>
<trkpt lat="46.46367633640887" lon="6.947497446946404"><ele></ele><time>2019-8-5T15:40:56Z</time></trkpt>
<trkpt lat="46.46477160539122" lon="6.949062731794413"><ele></ele><time>2019-8-5T15:40:59Z</time></trkpt>
<trkpt lat="46.46535810919953" lon="6.949474016460847"><ele></ele><time>2019-8-5T15:41:2Z</time></trkpt>
<trkpt lat="46.466641021555596" lon="6.950751281505488"><ele></ele><time>2019-8-5T15:41:5Z</time></trkpt>
<trkpt lat="46.46704643323895" lon="6.950890832268809"><ele></ele><time>2019-8-5T15:41:8Z</time></trkpt>
<trkpt lat="46.46894096362969" lon="6.952149647898952"><ele></ele><time>2019-8-5T15:41:11Z</time></trkpt>
<trkpt lat="46.46999789960965" lon="6.953181714109584"><ele></ele><time>2019-8-5T15:41:14Z</time></trkpt>
<trkpt lat="46.46920233469041" lon="6.952264471722971"><ele></ele><time>2019-8-5T15:41:17Z</time></trkpt>
<trkpt lat="46.4665235198873" lon="6.950622153011906"><ele></ele><time>2019-8-5T15:41:20Z</time></trkpt>
<trkpt lat="46.46556528546306" lon="6.949537235395419"><ele></ele><time>2019-8-5T15:41:23Z</time></trkpt>
<trkpt lat="46.464671585952615" lon="6.94881628716631"><ele></ele><time>2019-8-5T15:41:26Z</time></trkpt>
<trkpt lat="46.463702532132494" lon="6.947314954175037"><ele></ele><time>2019-8-5T15:41:29Z</time></trkpt>
<trkpt lat="46.46313350252951" lon="6.946786383873774"><ele></ele><time>2019-8-5T15:41:32Z</time></trkpt>
<trkpt lat="46.46268322167437" lon="6.946673318022042"><ele></ele><time>2019-8-5T15:41:35Z</time></trkpt>
<trkpt lat="46.46214994434388" lon="6.946092367430507"><ele></ele><time>2019-8-5T15:41:38Z</time></trkpt>
<trkpt lat="46.46108853925191" lon="6.946115052900988"><ele></ele><time>2019-8-5T15:41:41Z</time></trkpt>
<trkpt lat="46.460588415226255" lon="6.946952725193353"><ele></ele><time>2019-8-5T15:41:44Z</time></trkpt>
<trkpt lat="46.46011842889134" lon="6.948519079466498"><ele></ele><time>2019-8-5T15:41:47Z</time></trkpt>
<trkpt lat="46.45976187664997" lon="6.949277311833362"><ele></ele><time>2019-8-5T15:41:50Z</time></trkpt>
<trkpt lat="46.459745516570244" lon="6.949654960119458"><ele></ele><time>2019-8-5T15:41:53Z</time></trkpt>
<trkpt lat="46.46181695177327" lon="6.954400722730782"><ele></ele><time>2019-8-5T15:41:56Z</time></trkpt>
<trkpt lat="46.461998029365155" lon="6.954672474606187"><ele></ele><time>2019-8-5T15:41:59Z</time></trkpt>
<trkpt lat="46.46403744381226" lon="6.956164340273705"><ele></ele><time>2019-8-5T15:42:2Z</time></trkpt>
<trkpt lat="46.46448065968251" lon="6.956733194075412"><ele></ele><time>2019-8-5T15:42:5Z</time></trkpt>
<trkpt lat="46.467398394668386" lon="6.957462294364816"><ele></ele><time>2019-8-5T15:42:8Z</time></trkpt>
<trkpt lat="46.46858839167649" lon="6.9580636136515865"><ele></ele><time>2019-8-5T15:42:11Z</time></trkpt>
<trkpt lat="46.468885351852734" lon="6.95808701287891"><ele></ele><time>2019-8-5T15:42:14Z</time></trkpt>
<trkpt lat="46.46942386277098" lon="6.957795795839236"><ele></ele><time>2019-8-5T15:42:17Z</time></trkpt>
<trkpt lat="46.469461447006665" lon="6.958173029253684"><ele></ele><time>2019-8-5T15:42:20Z</time></trkpt>
<trkpt lat="46.46984096728109" lon="6.958573266099145"><ele></ele><time>2019-8-5T15:42:23Z</time></trkpt>
<trkpt lat="46.47043648710754" lon="6.958997631735017"><ele></ele><time>2019-8-5T15:42:26Z</time></trkpt>
<trkpt lat="46.47112830908362" lon="6.958796194255205"><ele></ele><time>2019-8-5T15:42:29Z</time></trkpt>
<trkpt lat="46.471551425946316" lon="6.958870559215213"><ele></ele><time>2019-8-5T15:42:32Z</time></trkpt>
<trkpt lat="46.47175202656343" lon="6.959506765102782"><ele></ele><time>2019-8-5T15:42:35Z</time></trkpt>
<trkpt lat="46.47188728870878" lon="6.9595836872509516"><ele></ele><time>2019-8-5T15:42:38Z</time></trkpt>
<trkpt lat="46.47228325350835" lon="6.959619239211583"><ele></ele><time>2019-8-5T15:42:41Z</time></trkpt>
<trkpt lat="46.47282916513537" lon="6.958950362431348"><ele></ele><time>2019-8-5T15:42:44Z</time></trkpt>
<trkpt lat="46.47298225312327" lon="6.958988065314736"><ele></ele><time>2019-8-5T15:42:47Z</time></trkpt>
<trkpt lat="46.47309102541922" lon="6.959182406931251"><ele></ele><time>2019-8-5T15:42:50Z</time></trkpt>
<trkpt lat="46.47312021534506" lon="6.95970296617996"><ele></ele><time>2019-8-5T15:42:53Z</time></trkpt>
<trkpt lat="46.47325580763147" lon="6.959858010748661"><ele></ele><time>2019-8-5T15:42:56Z</time></trkpt>
<trkpt lat="46.476329025732234" lon="6.961198019802132"><ele></ele><time>2019-8-5T15:42:59Z</time></trkpt>
<trkpt lat="46.47733947740972" lon="6.961892254223391"><ele></ele><time>2019-8-5T15:43:2Z</time></trkpt>
<trkpt lat="46.48049395799677" lon="6.963309898140396"><ele></ele><time>2019-8-5T15:43:5Z</time></trkpt>
<trkpt lat="46.48038901591839" lon="6.964027041796135"><ele></ele><time>2019-8-5T15:43:8Z</time></trkpt>
<trkpt lat="46.4801374162325" lon="6.964094361674436"><ele></ele><time>2019-8-5T15:43:11Z</time></trkpt>
<trkpt lat="46.47905632537684" lon="6.963713196512191"><ele></ele><time>2019-8-5T15:43:14Z</time></trkpt>
<trkpt lat="46.477820615957945" lon="6.962929737163941"><ele></ele><time>2019-8-5T15:43:17Z</time></trkpt>
<trkpt lat="46.479245611905654" lon="6.963802686840289"><ele></ele><time>2019-8-5T15:43:20Z</time></trkpt>
<trkpt lat="46.48029055702623" lon="6.964145105879709"><ele></ele><time>2019-8-5T15:43:23Z</time></trkpt>
<trkpt lat="46.47978632104076" lon="6.964032333794672"><ele></ele><time>2019-8-5T15:43:26Z</time></trkpt>
<trkpt lat="46.47861751312637" lon="6.964185835718747"><ele></ele><time>2019-8-5T15:43:29Z</time></trkpt>
<trkpt lat="46.478150513390965" lon="6.964372237952471"><ele></ele><time>2019-8-5T15:43:32Z</time></trkpt>
<trkpt lat="46.477864348616166" lon="6.964778417971727"><ele></ele><time>2019-8-5T15:43:35Z</time></trkpt>
<trkpt lat="46.47701850417544" lon="6.964720725922243"><ele></ele><time>2019-8-5T15:43:38Z</time></trkpt>
<trkpt lat="46.47713914646815" lon="6.9656051243371095"><ele></ele><time>2019-8-5T15:43:41Z</time></trkpt>
<trkpt lat="46.47675717631688" lon="6.966767364478718"><ele></ele><time>2019-8-5T15:43:44Z</time></trkpt>
<trkpt lat="46.47653418790126" lon="6.9672250553637864"><ele></ele><time>2019-8-5T15:43:47Z</time></trkpt>
<trkpt lat="46.47639947293845" lon="6.967278315143376"><ele></ele><time>2019-8-5T15:43:50Z</time></trkpt>
<trkpt lat="46.47645377075166" lon="6.967355969146758"><ele></ele><time>2019-8-5T15:43:53Z</time></trkpt>
<trkpt lat="46.47524908474802" lon="6.967535744480614"><ele></ele><time>2019-8-5T15:43:56Z</time></trkpt>
<trkpt lat="46.473354129452375" lon="6.968294427082534"><ele></ele><time>2019-8-5T15:43:59Z</time></trkpt>
<trkpt lat="46.47305668467228" lon="6.968153790336877"><ele></ele><time>2019-8-5T15:44:2Z</time></trkpt>
<trkpt lat="46.47257705691856" lon="6.967467887982407"><ele></ele><time>2019-8-5T15:44:5Z</time></trkpt>
<trkpt lat="46.472199193829226" lon="6.967458161142193"><ele></ele><time>2019-8-5T15:44:8Z</time></trkpt>
<trkpt lat="46.47194022079384" lon="6.967916123983655"><ele></ele><time>2019-8-5T15:44:11Z</time></trkpt>
<trkpt lat="46.47196807283723" lon="6.9681242041445515"><ele></ele><time>2019-8-5T15:44:14Z</time></trkpt>
<trkpt lat="46.472689763422096" lon="6.9686126956626815"><ele></ele><time>2019-8-5T15:44:17Z</time></trkpt>
<trkpt lat="46.472916917974466" lon="6.9691575771855465"><ele></ele><time>2019-8-5T15:44:20Z</time></trkpt>
<trkpt lat="46.47240094851779" lon="6.9705552270748665"><ele></ele><time>2019-8-5T15:44:23Z</time></trkpt>
<trkpt lat="46.47253765538525" lon="6.970983713307987"><ele></ele><time>2019-8-5T15:44:26Z</time></trkpt>
<trkpt lat="46.47217152821252" lon="6.971637891300551"><ele></ele><time>2019-8-5T15:44:29Z</time></trkpt>
<trkpt lat="46.47172315097864" lon="6.971980287449565"><ele></ele><time>2019-8-5T15:44:32Z</time></trkpt>
<trkpt lat="46.47110230370612" lon="6.97194658694189"><ele></ele><time>2019-8-5T15:44:35Z</time></trkpt>
<trkpt lat="46.47050341399971" lon="6.972876163668484"><ele></ele><time>2019-8-5T15:44:38Z</time></trkpt>
<trkpt lat="46.469377696578675" lon="6.97257339333974"><ele></ele><time>2019-8-5T15:44:41Z</time></trkpt>
<trkpt lat="46.468622024786605" lon="6.972566888618708"><ele></ele><time>2019-8-5T15:44:44Z</time></trkpt>
<trkpt lat="46.46825449670861" lon="6.9728825195864585"><ele></ele><time>2019-8-5T15:44:47Z</time></trkpt>
<trkpt lat="46.46793976286471" lon="6.97291126946249"><ele></ele><time>2019-8-5T15:44:50Z</time></trkpt>
<trkpt lat="46.46774427082738" lon="6.973498815179184"><ele></ele><time>2019-8-5T15:44:53Z</time></trkpt>
<trkpt lat="46.46660077810115" lon="6.973248275869737"><ele></ele><time>2019-8-5T15:44:56Z</time></trkpt>
<trkpt lat="46.466394952427905" lon="6.973510424110887"><ele></ele><time>2019-8-5T15:44:59Z</time></trkpt>
<trkpt lat="46.466026299142335" lon="6.973552651940783"><ele></ele><time>2019-8-5T15:45:2Z</time></trkpt>
<trkpt lat="46.464760451206864" lon="6.974175407335613"><ele></ele><time>2019-8-5T15:45:5Z</time></trkpt>
<trkpt lat="46.46369904065828" lon="6.974197543703023"><ele></ele><time>2019-8-5T15:45:8Z</time></trkpt>
<trkpt lat="46.46201002925987" lon="6.974732762970605"><ele></ele><time>2019-8-5T15:45:11Z</time></trkpt>
<trkpt lat="46.460979228092704" lon="6.975639816022737"><ele></ele><time>2019-8-5T15:45:14Z</time></trkpt>
<trkpt lat="46.46005280226698" lon="6.9756737836306995"><ele></ele><time>2019-8-5T15:45:17Z</time></trkpt>
<trkpt lat="46.45979251935981" lon="6.97581920184237"><ele></ele><time>2019-8-5T15:45:20Z</time></trkpt>
<trkpt lat="46.459602816383786" lon="6.975625567806442"><ele></ele><time>2019-8-5T15:45:23Z</time></trkpt>
<trkpt lat="46.45930660491326" lon="6.975784309726165"><ele></ele><time>2019-8-5T15:45:26Z</time></trkpt>
<trkpt lat="46.45901827121751" lon="6.975669624488874"><ele></ele><time>2019-8-5T15:45:29Z</time></trkpt>
<trkpt lat="46.45852410635836" lon="6.9758170418704335"><ele></ele><time>2019-8-5T15:45:32Z</time></trkpt>
<trkpt lat="46.45819042278489" lon="6.975611628438031"><ele></ele><time>2019-8-5T15:45:35Z</time></trkpt>
<trkpt lat="46.45748127143838" lon="6.97598216801042"><ele></ele><time>2019-8-5T15:45:38Z</time></trkpt>
<trkpt lat="46.45646190993931" lon="6.975288002384347"><ele></ele><time>2019-8-5T15:45:41Z</time></trkpt>
<trkpt lat="46.45532864179696" lon="6.975336761599205"><ele></ele><time>2019-8-5T15:45:44Z</time></trkpt>
<trkpt lat="46.45482271087669" lon="6.974807438644063"><ele></ele><time>2019-8-5T15:45:47Z</time></trkpt>
<trkpt lat="46.453717195517406" lon="6.972851538845172"><ele></ele><time>2019-8-5T15:45:50Z</time></trkpt>
<trkpt lat="46.45342928728479" lon="6.972841003020125"><ele></ele><time>2019-8-5T15:45:53Z</time></trkpt>
<trkpt lat="46.452801746051804" lon="6.973367030666384"><ele></ele><time>2019-8-5T15:45:56Z</time></trkpt>
<trkpt lat="46.452381365087064" lon="6.973956343037149"><ele></ele><time>2019-8-5T15:45:59Z</time></trkpt>
<trkpt lat="46.452047002392675" lon="6.975781368558499"><ele></ele><time>2019-8-5T15:46:2Z</time></trkpt>
<trkpt lat="46.451665458525525" lon="6.977073147057225"><ele></ele><time>2019-8-5T15:46:5Z</time></trkpt>
<trkpt lat="46.45150454821107" lon="6.977321810056537"><ele></ele><time>2019-8-5T15:46:8Z</time></trkpt>
<trkpt lat="46.45112742816585" lon="6.977494224074124"><ele></ele><time>2019-8-5T15:46:11Z</time></trkpt>
<trkpt lat="46.451065625979574" lon="6.977781084073726"><ele></ele><time>2019-8-5T15:46:14Z</time></trkpt>
<trkpt lat="46.45089455322518" lon="6.97774349668515"><ele></ele><time>2019-8-5T15:46:17Z</time></trkpt>
<trkpt lat="46.45113721874238" lon="6.9776893678816"><ele></ele><time>2019-8-5T15:46:20Z</time></trkpt>
<trkpt lat="46.45112049930055" lon="6.978001873965653"><ele></ele><time>2019-8-5T15:46:23Z</time></trkpt>
<trkpt lat="46.450382977262855" lon="6.978034186064068"><ele></ele><time>2019-8-5T15:46:26Z</time></trkpt>
<trkpt lat="46.44954406768851" lon="6.977468681329193"><ele></ele><time>2019-8-5T15:46:29Z</time></trkpt>
<trkpt lat="46.448868560053214" lon="6.97947869126367"><ele></ele><time>2019-8-5T15:46:32Z</time></trkpt>
<trkpt lat="46.44889644367972" lon="6.979699702939079"><ele></ele><time>2019-8-5T15:46:35Z</time></trkpt>
<trkpt lat="46.449321761559666" lon="6.980320799813963"><ele></ele><time>2019-8-5T15:46:38Z</time></trkpt>
<trkpt lat="46.448990983301535" lon="6.9808311738820334"><ele></ele><time>2019-8-5T15:46:41Z</time></trkpt>
<trkpt lat="46.44880523399158" lon="6.981613621701027"><ele></ele><time>2019-8-5T15:46:44Z</time></trkpt>
<trkpt lat="46.44855462162404" lon="6.981928088311357"><ele></ele><time>2019-8-5T15:46:47Z</time></trkpt>
<trkpt lat="46.448519532215464" lon="6.982149631487715"><ele></ele><time>2019-8-5T15:46:50Z</time></trkpt>
<trkpt lat="46.448618902172726" lon="6.982252909045115"><ele></ele><time>2019-8-5T15:46:53Z</time></trkpt>
<trkpt lat="46.44894305376451" lon="6.9823282611776945"><ele></ele><time>2019-8-5T15:46:56Z</time></trkpt>
<trkpt lat="46.44941534857853" lon="6.981218023476525"><ele></ele><time>2019-8-5T15:46:59Z</time></trkpt>
<trkpt lat="46.45070600888649" lon="6.980048767130849"><ele></ele><time>2019-8-5T15:47:2Z</time></trkpt>
<trkpt lat="46.450860038691765" lon="6.980320777686286"><ele></ele><time>2019-8-5T15:47:5Z</time></trkpt>
<trkpt lat="46.451500823267764" lon="6.980835956340861"><ele></ele><time>2019-8-5T15:47:8Z</time></trkpt>
<trkpt lat="46.45148367431317" lon="6.9810443452479705"><ele></ele><time>2019-8-5T15:47:11Z</time></trkpt>
<trkpt lat="46.45135784302642" lon="6.981071440428448"><ele></ele><time>2019-8-5T15:47:14Z</time></trkpt>
<trkpt lat="46.450763563570696" lon="6.9809333031663625"><ele></ele><time>2019-8-5T15:47:17Z</time></trkpt>
<trkpt lat="46.45045119397541" lon="6.981547651292209"><ele></ele><time>2019-8-5T15:47:20Z</time></trkpt>
<trkpt lat="46.45051605320106" lon="6.982015643060118"><ele></ele><time>2019-8-5T15:47:23Z</time></trkpt>
<trkpt lat="46.45028332572947" lon="6.982303936929366"><ele></ele><time>2019-8-5T15:47:26Z</time></trkpt>
<trkpt lat="46.450150753237" lon="6.982890726646595"><ele></ele><time>2019-8-5T15:47:29Z</time></trkpt>
<trkpt lat="46.450241231821856" lon="6.983020113448036"><ele></ele><time>2019-8-5T15:47:32Z</time></trkpt>
<trkpt lat="46.450888853005175" lon="6.983001641896965"><ele></ele><time>2019-8-5T15:47:35Z</time></trkpt>
<trkpt lat="46.45060366786263" lon="6.983667810761693"><ele></ele><time>2019-8-5T15:47:38Z</time></trkpt>
<trkpt lat="46.450307601946285" lon="6.983865525884139"><ele></ele><time>2019-8-5T15:47:41Z</time></trkpt>
<trkpt lat="46.45031722475915" lon="6.984021624357864"><ele></ele><time>2019-8-5T15:47:44Z</time></trkpt>
<trkpt lat="46.45080339808708" lon="6.984121657680903"><ele></ele><time>2019-8-5T15:47:47Z</time></trkpt>
<trkpt lat="46.45103597329446" lon="6.983794324803353"><ele></ele><time>2019-8-5T15:47:50Z</time></trkpt>
<trkpt lat="46.45149474209146" lon="6.983790466007803"><ele></ele><time>2019-8-5T15:47:53Z</time></trkpt>
<trkpt lat="46.4515761718981" lon="6.983906918349931"><ele></ele><time>2019-8-5T15:47:56Z</time></trkpt>
<trkpt lat="46.45079769193486" lon="6.984941654718721"><ele></ele><time>2019-8-5T15:47:59Z</time></trkpt>
<trkpt lat="46.4509165099632" lon="6.985409201177876"><ele></ele><time>2019-8-5T15:48:2Z</time></trkpt>
<trkpt lat="46.45138677389655" lon="6.986029989559807"><ele></ele><time>2019-8-5T15:48:5Z</time></trkpt>
<trkpt lat="46.45146705646924" lon="6.985860119686266"><ele></ele><time>2019-8-5T15:48:8Z</time></trkpt>
<trkpt lat="46.451385732809264" lon="6.98576969418102"><ele></ele><time>2019-8-5T15:48:11Z</time></trkpt>
<trkpt lat="46.451475687488085" lon="6.9857689408338945"><ele></ele><time>2019-8-5T15:48:14Z</time></trkpt>
<trkpt lat="46.45130435699665" lon="6.985666254198128"><ele></ele><time>2019-8-5T15:48:17Z</time></trkpt>
<trkpt lat="46.45143138692394" lon="6.985938509643273"><ele></ele><time>2019-8-5T15:48:20Z</time></trkpt>
<trkpt lat="46.451771392032725" lon="6.985480127821776"><ele></ele><time>2019-8-5T15:48:23Z</time></trkpt>
<trkpt lat="46.452256521937805" lon="6.985319877362495"><ele></ele><time>2019-8-5T15:48:26Z</time></trkpt>
<trkpt lat="46.45234704985226" lon="6.985462288247245"><ele></ele><time>2019-8-5T15:48:29Z</time></trkpt>
<trkpt lat="46.45218794289794" lon="6.986166453105999"><ele></ele><time>2019-8-5T15:48:32Z</time></trkpt>
<trkpt lat="46.45226307731739" lon="6.986959764713464"><ele></ele><time>2019-8-5T15:48:35Z</time></trkpt>
<trkpt lat="46.452196144013804" lon="6.988222817371741"><ele></ele><time>2019-8-5T15:48:38Z</time></trkpt>
<trkpt lat="46.45251847842457" lon="6.987842683681004"><ele></ele><time>2019-8-5T15:48:41Z</time></trkpt>
<trkpt lat="46.452923119025826" lon="6.98780026359508"><ele></ele><time>2019-8-5T15:48:44Z</time></trkpt>
<trkpt lat="46.452968873747466" lon="6.98799511585964"><ele></ele><time>2019-8-5T15:48:47Z</time></trkpt>
<trkpt lat="46.452576437836484" lon="6.988844393090108"><ele></ele><time>2019-8-5T15:48:50Z</time></trkpt>
<trkpt lat="46.453008427233314" lon="6.988892862067976"><ele></ele><time>2019-8-5T15:48:53Z</time></trkpt>
<trkpt lat="46.45351134595353" lon="6.988680427685863"><ele></ele><time>2019-8-5T15:48:56Z</time></trkpt>
<trkpt lat="46.45392901351893" lon="6.989653138034793"><ele></ele><time>2019-8-5T15:48:59Z</time></trkpt>
<trkpt lat="46.454167535840504" lon="6.990822585645585"><ele></ele><time>2019-8-5T15:49:2Z</time></trkpt>
<trkpt lat="46.454565703500165" lon="6.991418022354335"><ele></ele><time>2019-8-5T15:49:5Z</time></trkpt>
<trkpt lat="46.45479357020213" lon="6.992171066683754"><ele></ele><time>2019-8-5T15:49:8Z</time></trkpt>
<trkpt lat="46.45446829528132" lon="6.991809306200373"><ele></ele><time>2019-8-5T15:49:11Z</time></trkpt>
<trkpt lat="46.45392779620207" lon="6.991618535553036"><ele></ele><time>2019-8-5T15:49:14Z</time></trkpt>
<trkpt lat="46.454181107964935" lon="6.991980885741918"><ele></ele><time>2019-8-5T15:49:17Z</time></trkpt>
<trkpt lat="46.454681243148315" lon="6.993343433244613"><ele></ele><time>2019-8-5T15:49:20Z</time></trkpt>
<trkpt lat="46.45510715079914" lon="6.994133907225036"><ele></ele><time>2019-8-5T15:49:23Z</time></trkpt>
<trkpt lat="46.455207939977676" lon="6.994601658768787"><ele></ele><time>2019-8-5T15:49:26Z</time></trkpt>
<trkpt lat="46.45606852418195" lon="6.99613051707762"><ele></ele><time>2019-8-5T15:49:29Z</time></trkpt>
<trkpt lat="46.456592854636064" lon="6.996790064509042"><ele></ele><time>2019-8-5T15:49:32Z</time></trkpt>
<trkpt lat="46.455096605934635" lon="6.996034342643332"><ele></ele><time>2019-8-5T15:49:35Z</time></trkpt>
<trkpt lat="46.455043141932144" lon="6.99616494102529"><ele></ele><time>2019-8-5T15:49:38Z</time></trkpt>
<trkpt lat="46.456716134745115" lon="6.99841611627787"><ele></ele><time>2019-8-5T15:49:41Z</time></trkpt>
<trkpt lat="46.45764630935736" lon="6.999345744658101"><ele></ele><time>2019-8-5T15:49:44Z</time></trkpt>
<trkpt lat="46.45752977222197" lon="6.9994508248753275"><ele></ele><time>2019-8-5T15:49:47Z</time></trkpt>
<trkpt lat="46.456566448170996" lon="6.999250386994801"><ele></ele><time>2019-8-5T15:49:50Z</time></trkpt>
<trkpt lat="46.45626135966809" lon="6.999448111793791"><ele></ele><time>2019-8-5T15:49:53Z</time></trkpt>
<trkpt lat="46.45625291960023" lon="6.999591360321228"><ele></ele><time>2019-8-5T15:49:56Z</time></trkpt>
<trkpt lat="46.45660626547456" lon="7.000239313264893"><ele></ele><time>2019-8-5T15:49:59Z</time></trkpt>
<trkpt lat="46.457038753912556" lon="7.0004180380995775"><ele></ele><time>2019-8-5T15:50:2Z</time></trkpt>
<trkpt lat="46.45712051922465" lon="7.000625640463467"><ele></ele><time>2019-8-5T15:50:5Z</time></trkpt>
<trkpt lat="46.456941818018436" lon="7.0009394847941815"><ele></ele><time>2019-8-5T15:50:8Z</time></trkpt>
<trkpt lat="46.457005692030016" lon="7.001173265418361"><ele></ele><time>2019-8-5T15:50:11Z</time></trkpt>
<trkpt lat="46.45807132825298" lon="7.0022450369056894"><ele></ele><time>2019-8-5T15:50:14Z</time></trkpt>
<trkpt lat="46.45853300547076" lon="7.002996290894496"><ele></ele><time>2019-8-5T15:50:17Z</time></trkpt>
<trkpt lat="46.459606170153755" lon="7.003690570089241"><ele></ele><time>2019-8-5T15:50:20Z</time></trkpt>
<trkpt lat="46.45998642907596" lon="7.0043253562253645"><ele></ele><time>2019-8-5T15:50:23Z</time></trkpt>
<trkpt lat="46.460807861768686" lon="7.00506075176383"><ele></ele><time>2019-8-5T15:50:26Z</time></trkpt>
<trkpt lat="46.46123089850475" lon="7.005122446696009"><ele></ele><time>2019-8-5T15:50:29Z</time></trkpt>
<trkpt lat="46.46219261686911" lon="7.004906449989315"><ele></ele><time>2019-8-5T15:50:32Z</time></trkpt>
<trkpt lat="46.46381364718659" lon="7.005375116187024"><ele></ele><time>2019-8-5T15:50:35Z</time></trkpt>
<trkpt lat="46.4644692206423" lon="7.005083458619778"><ele></ele><time>2019-8-5T15:50:38Z</time></trkpt>
<trkpt lat="46.464912688945844" lon="7.005782897413877"><ele></ele><time>2019-8-5T15:50:41Z</time></trkpt>
<trkpt lat="46.46547001032123" lon="7.005674286127751"><ele></ele><time>2019-8-5T15:50:44Z</time></trkpt>
<trkpt lat="46.46654251210837" lon="7.006199467702173"><ele></ele><time>2019-8-5T15:50:47Z</time></trkpt>
<trkpt lat="46.468130284638896" lon="7.007384532388661"><ele></ele><time>2019-8-5T15:50:50Z</time></trkpt>
<trkpt lat="46.469291990102825" lon="7.007713770417738"><ele></ele><time>2019-8-5T15:50:53Z</time></trkpt>
<trkpt lat="46.469734996827455" lon="7.008296120231694"><ele></ele><time>2019-8-5T15:50:56Z</time></trkpt>
<trkpt lat="46.4702491240649" lon="7.008656578906059"><ele></ele><time>2019-8-5T15:50:59Z</time></trkpt>
<trkpt lat="46.470721382106646" lon="7.009837626389955"><ele></ele><time>2019-8-5T15:51:2Z</time></trkpt>
<trkpt lat="46.472306500652664" lon="7.012715536748462"><ele></ele><time>2019-8-5T15:51:5Z</time></trkpt>
<trkpt lat="46.47325430424128" lon="7.013580436526081"><ele></ele><time>2019-8-5T15:51:8Z</time></trkpt>
<trkpt lat="46.47400454205009" lon="7.014538061461849"><ele></ele><time>2019-8-5T15:51:11Z</time></trkpt>
<trkpt lat="46.474688832449516" lon="7.014701961817389"><ele></ele><time>2019-8-5T15:51:14Z</time></trkpt>
<trkpt lat="46.47478219606891" lon="7.015612685395319"><ele></ele><time>2019-8-5T15:51:17Z</time></trkpt>
<trkpt lat="46.47509980826557" lon="7.01635238917778"><ele></ele><time>2019-8-5T15:51:20Z</time></trkpt>
<trkpt lat="46.47608356597696" lon="7.0172171166157415"><ele></ele><time>2019-8-5T15:51:23Z</time></trkpt>
<trkpt lat="46.47656085949433" lon="7.017356628161713"><ele></ele><time>2019-8-5T15:51:26Z</time></trkpt>
<trkpt lat="46.47700086278145" lon="7.017144856840017"><ele></ele><time>2019-8-5T15:51:29Z</time></trkpt>
<trkpt lat="46.477477623298036" lon="7.0171411383710804"><ele></ele><time>2019-8-5T15:51:32Z</time></trkpt>
<trkpt lat="46.479353909556345" lon="7.018532868483694"><ele></ele><time>2019-8-5T15:51:35Z</time></trkpt>
<trkpt lat="46.479497209105716" lon="7.0183624693714854"><ele></ele><time>2019-8-5T15:51:38Z</time></trkpt>
<trkpt lat="46.480621209243075" lon="7.018236527753589"><ele></ele><time>2019-8-5T15:51:41Z</time></trkpt>
<trkpt lat="46.48156655639346" lon="7.018450554333506"><ele></ele><time>2019-8-5T15:51:44Z</time></trkpt>
<trkpt lat="46.4824499003412" lon="7.0189255230642384"><ele></ele><time>2019-8-5T15:51:47Z</time></trkpt>
<trkpt lat="46.483403952146766" lon="7.0190613640998025"><ele></ele><time>2019-8-5T15:51:50Z</time></trkpt>
<trkpt lat="46.48367502234142" lon="7.019384832592477"><ele></ele><time>2019-8-5T15:51:53Z</time></trkpt>
<trkpt lat="46.48394075311945" lon="7.020698093451703"><ele></ele><time>2019-8-5T15:51:56Z</time></trkpt>
<trkpt lat="46.48467480860641" lon="7.022164034065337"><ele></ele><time>2019-8-5T15:51:59Z</time></trkpt>
<trkpt lat="46.48504945528087" lon="7.023749984153815"><ele></ele><time>2019-8-5T15:52:2Z</time></trkpt>
<trkpt lat="46.48562912113309" lon="7.024826475217803"><ele></ele><time>2019-8-5T15:52:5Z</time></trkpt>
<trkpt lat="46.48656831131141" lon="7.0258221010948985"><ele></ele><time>2019-8-5T15:52:8Z</time></trkpt>
<trkpt lat="46.4871114546012" lon="7.026755661424105"><ele></ele><time>2019-8-5T15:52:11Z</time></trkpt>
<trkpt lat="46.48759915153774" lon="7.027285922189301"><ele></ele><time>2019-8-5T15:52:14Z</time></trkpt>
<trkpt lat="46.48854067777613" lon="7.028932813803848"><ele></ele><time>2019-8-5T15:52:17Z</time></trkpt>
<trkpt lat="46.488596581215546" lon="7.029466378308548"><ele></ele><time>2019-8-5T15:52:20Z</time></trkpt>
<trkpt lat="46.488445961876764" lon="7.030105698527162"><ele></ele><time>2019-8-5T15:52:23Z</time></trkpt>
<trkpt lat="46.48855508179487" lon="7.03043047583109"><ele></ele><time>2019-8-5T15:52:26Z</time></trkpt>
<trkpt lat="46.48857640208284" lon="7.031355025981163"><ele></ele><time>2019-8-5T15:52:29Z</time></trkpt>
<trkpt lat="46.48834840922147" lon="7.032997774522932"><ele></ele><time>2019-8-5T15:52:32Z</time></trkpt>
<trkpt lat="46.48855217603992" lon="7.034637280378908"><ele></ele><time>2019-8-5T15:52:35Z</time></trkpt>
<trkpt lat="46.488445855432715" lon="7.0350939177923175"><ele></ele><time>2019-8-5T15:52:38Z</time></trkpt>
<trkpt lat="46.48823121621175" lon="7.035447169454243"><ele></ele><time>2019-8-5T15:52:41Z</time></trkpt>
<trkpt lat="46.48752270393356" lon="7.0360515538522"><ele></ele><time>2019-8-5T15:52:44Z</time></trkpt>
<trkpt lat="46.48736531531572" lon="7.037329059624682"><ele></ele><time>2019-8-5T15:52:47Z</time></trkpt>
<trkpt lat="46.486530026369735" lon="7.037699925077731"><ele></ele><time>2019-8-5T15:52:50Z</time></trkpt>
<trkpt lat="46.48560339855713" lon="7.03768075485737"><ele></ele><time>2019-8-5T15:52:53Z</time></trkpt>
<trkpt lat="46.48558725089656" lon="7.038201809775244"><ele></ele><time>2019-8-5T15:52:56Z</time></trkpt>
<trkpt lat="46.48566110175565" lon="7.038735221575361"><ele></ele><time>2019-8-5T15:52:59Z</time></trkpt>
<trkpt lat="46.48625705605117" lon="7.039368963634217"><ele></ele><time>2019-8-5T15:53:2Z</time></trkpt>
<trkpt lat="46.48739909462111" lon="7.041808999809161"><ele></ele><time>2019-8-5T15:53:5Z</time></trkpt>
<trkpt lat="46.487662881788275" lon="7.042640590018178"><ele></ele><time>2019-8-5T15:53:8Z</time></trkpt>
<trkpt lat="46.48760055080034" lon="7.042823380908415"><ele></ele><time>2019-8-5T15:53:11Z</time></trkpt>
<trkpt lat="46.48725917719047" lon="7.04295611978293"><ele></ele><time>2019-8-5T15:53:14Z</time></trkpt>
<trkpt lat="46.486799633161034" lon="7.042738083252847"><ele></ele><time>2019-8-5T15:53:17Z</time></trkpt>
<trkpt lat="46.48662104309829" lon="7.043117077005835"><ele></ele><time>2019-8-5T15:53:20Z</time></trkpt>
<trkpt lat="46.48658656145062" lon="7.0435471086710155"><ele></ele><time>2019-8-5T15:53:23Z</time></trkpt>
<trkpt lat="46.48757196920089" lon="7.044946477746198"><ele></ele><time>2019-8-5T15:53:26Z</time></trkpt>
<trkpt lat="46.488246857690484" lon="7.045006679496597"><ele></ele><time>2019-8-5T15:53:29Z</time></trkpt>
<trkpt lat="46.488178149466435" lon="7.045944907683204"><ele></ele><time>2019-8-5T15:53:32Z</time></trkpt>
<trkpt lat="46.487623226066525" lon="7.046756420742618"><ele></ele><time>2019-8-5T15:53:35Z</time></trkpt>
<trkpt lat="46.48758000524237" lon="7.047264664363357"><ele></ele><time>2019-8-5T15:53:38Z</time></trkpt>
<trkpt lat="46.48773612086529" lon="7.048188229223995"><ele></ele><time>2019-8-5T15:53:41Z</time></trkpt>
<trkpt lat="46.48849550957474" lon="7.049276762209829"><ele></ele><time>2019-8-5T15:53:44Z</time></trkpt>
<trkpt lat="46.48964178352499" lon="7.0503885935215616"><ele></ele><time>2019-8-5T15:53:47Z</time></trkpt>
<trkpt lat="46.491106623993296" lon="7.052592262864138"><ele></ele><time>2019-8-5T15:53:50Z</time></trkpt>
<trkpt lat="46.49167480483724" lon="7.053018021515037"><ele></ele><time>2019-8-5T15:53:53Z</time></trkpt>
<trkpt lat="46.492773142375285" lon="7.053270682207604"><ele></ele><time>2019-8-5T15:53:56Z</time></trkpt>
<trkpt lat="46.49465731721132" lon="7.054468614896741"><ele></ele><time>2019-8-5T15:53:59Z</time></trkpt>
<trkpt lat="46.49540469450473" lon="7.054684736364319"><ele></ele><time>2019-8-5T15:54:2Z</time></trkpt>
<trkpt lat="46.49657397670948" lon="7.054637346117643"><ele></ele><time>2019-8-5T15:54:5Z</time></trkpt>
<trkpt lat="46.49813531122788" lon="7.056137305331465"><ele></ele><time>2019-8-5T15:54:8Z</time></trkpt>
<trkpt lat="46.49873937272126" lon="7.056536849479561"><ele></ele><time>2019-8-5T15:54:11Z</time></trkpt>
<trkpt lat="46.4988379275912" lon="7.05641891327218"><ele></ele><time>2019-8-5T15:54:14Z</time></trkpt>
<trkpt lat="46.49877937438402" lon="7.055064567978698"><ele></ele><time>2019-8-5T15:54:17Z</time></trkpt>
<trkpt lat="46.49887779532216" lon="7.054907550265549"><ele></ele><time>2019-8-5T15:54:20Z</time></trkpt>
<trkpt lat="46.50004747468181" lon="7.054977400541748"><ele></ele><time>2019-8-5T15:54:23Z</time></trkpt>
<trkpt lat="46.50105713079977" lon="7.05560855503934"><ele></ele><time>2019-8-5T15:54:26Z</time></trkpt>
<trkpt lat="46.50271735879394" lon="7.057094940236438"><ele></ele><time>2019-8-5T15:54:29Z</time></trkpt>
<trkpt lat="46.503945389870104" lon="7.058467208201045"><ele></ele><time>2019-8-5T15:54:32Z</time></trkpt>
<trkpt lat="46.50463424073449" lon="7.060012683705843"><ele></ele><time>2019-8-5T15:54:35Z</time></trkpt>
<trkpt lat="46.504853525085885" lon="7.061027329658216"><ele></ele><time>2019-8-5T15:54:38Z</time></trkpt>
<trkpt lat="46.504911747444865" lon="7.062303667131385"><ele></ele><time>2019-8-5T15:54:41Z</time></trkpt>
<trkpt lat="46.50537994618512" lon="7.062430685325072"><ele></ele><time>2019-8-5T15:54:44Z</time></trkpt>
<trkpt lat="46.50584944185753" lon="7.062948543612215"><ele></ele><time>2019-8-5T15:54:47Z</time></trkpt>
<trkpt lat="46.50731816894257" lon="7.063680954121536"><ele></ele><time>2019-8-5T15:54:50Z</time></trkpt>
<trkpt lat="46.50810271666562" lon="7.064261800862314"><ele></ele><time>2019-8-5T15:54:53Z</time></trkpt>
<trkpt lat="46.50941153452108" lon="7.065607751069533"><ele></ele><time>2019-8-5T15:54:56Z</time></trkpt>
<trkpt lat="46.50951164299782" lon="7.065958845416974"><ele></ele><time>2019-8-5T15:54:59Z</time></trkpt>
<trkpt lat="46.51033288840506" lon="7.066760993942293"><ele></ele><time>2019-8-5T15:55:2Z</time></trkpt>
<trkpt lat="46.51157077759267" lon="7.068433286692447"><ele></ele><time>2019-8-5T15:55:5Z</time></trkpt>
<trkpt lat="46.5124452133428" lon="7.06900060258069"><ele></ele><time>2019-8-5T15:55:8Z</time></trkpt>
<trkpt lat="46.51311928038639" lon="7.068813567914473"><ele></ele><time>2019-8-5T15:55:11Z</time></trkpt>
<trkpt lat="46.515995293752056" lon="7.070774527768702"><ele></ele><time>2019-8-5T15:55:14Z</time></trkpt>
<trkpt lat="46.517556455918466" lon="7.072288521486942"><ele></ele><time>2019-8-5T15:55:17Z</time></trkpt>
<trkpt lat="46.517898032015744" lon="7.072208016687065"><ele></ele><time>2019-8-5T15:55:20Z</time></trkpt>
<trkpt lat="46.51841487132293" lon="7.070692883562089"><ele></ele><time>2019-8-5T15:55:23Z</time></trkpt>
<trkpt lat="46.51854938047055" lon="7.070561653939513"><ele></ele><time>2019-8-5T15:55:26Z</time></trkpt>
<trkpt lat="46.51936142853808" lon="7.0713119427079"><ele></ele><time>2019-8-5T15:55:29Z</time></trkpt>
<trkpt lat="46.52119954861956" lon="7.072237732817369"><ele></ele><time>2019-8-5T15:55:32Z</time></trkpt>
<trkpt lat="46.52224748571297" lon="7.07361202966924"><ele></ele><time>2019-8-5T15:55:35Z</time></trkpt>
<trkpt lat="46.5229319411257" lon="7.073855015379897"><ele></ele><time>2019-8-5T15:55:38Z</time></trkpt>
<trkpt lat="46.524826438298355" lon="7.075536474579764"><ele></ele><time>2019-8-5T15:55:41Z</time></trkpt>
<trkpt lat="46.52552009369912" lon="7.075844599116442"><ele></ele><time>2019-8-5T15:55:44Z</time></trkpt>
<trkpt lat="46.52735921653463" lon="7.077096476550464"><ele></ele><time>2019-8-5T15:55:47Z</time></trkpt>
<trkpt lat="46.52839714569165" lon="7.078171316436655"><ele></ele><time>2019-8-5T15:55:50Z</time></trkpt>
<trkpt lat="46.53255414412366" lon="7.081324003955842"><ele></ele><time>2019-8-5T15:55:53Z</time></trkpt>
<trkpt lat="46.53295052136408" lon="7.081503865832146"><ele></ele><time>2019-8-5T15:55:56Z</time></trkpt>
<trkpt lat="46.53349912347101" lon="7.081461130568307"><ele></ele><time>2019-8-5T15:55:59Z</time></trkpt>
<trkpt lat="46.534246817601705" lon="7.081795093084641"><ele></ele><time>2019-8-5T15:56:2Z</time></trkpt>
<trkpt lat="46.53502963111348" lon="7.081855092714697"><ele></ele><time>2019-8-5T15:56:5Z</time></trkpt>
<trkpt lat="46.53660609830499" lon="7.082561628522611"><ele></ele><time>2019-8-5T15:56:8Z</time></trkpt>
<trkpt lat="46.53808589756382" lon="7.083998856865352"><ele></ele><time>2019-8-5T15:56:11Z</time></trkpt>
<trkpt lat="46.538872578192354" lon="7.0852973030148725"><ele></ele><time>2019-8-5T15:56:14Z</time></trkpt>
<trkpt lat="46.53874668187808" lon="7.085311163583508"><ele></ele><time>2019-8-5T15:56:17Z</time></trkpt>
<trkpt lat="46.539187217329356" lon="7.085230061372642"><ele></ele><time>2019-8-5T15:56:20Z</time></trkpt>
<trkpt lat="46.53883663685158" lon="7.085310574534591"><ele></ele><time>2019-8-5T15:56:23Z</time></trkpt>
<trkpt lat="46.53915496945131" lon="7.086429606065391"><ele></ele><time>2019-8-5T15:56:26Z</time></trkpt>
<trkpt lat="46.5397218883825" lon="7.086491087238081"><ele></ele><time>2019-8-5T15:56:29Z</time></trkpt>
<trkpt lat="46.53967715394138" lon="7.086569597352261"><ele></ele><time>2019-8-5T15:56:32Z</time></trkpt>
<trkpt lat="46.53982999639018" lon="7.086542527245478"><ele></ele><time>2019-8-5T15:56:35Z</time></trkpt>
<trkpt lat="46.53982144637243" lon="7.086685983367455"><ele></ele><time>2019-8-5T15:56:38Z</time></trkpt>
<trkpt lat="46.53987473081221" lon="7.086464016887114"><ele></ele><time>2019-8-5T15:56:41Z</time></trkpt>
<trkpt lat="46.53968639243187" lon="7.086647755235519"><ele></ele><time>2019-8-5T15:56:44Z</time></trkpt>
<trkpt lat="46.53970490972709" lon="7.086817107183386"><ele></ele><time>2019-8-5T15:56:47Z</time></trkpt>
<trkpt lat="46.539856982882725" lon="7.086542351141717"><ele></ele><time>2019-8-5T15:56:50Z</time></trkpt>
<trkpt lat="46.539694415634806" lon="7.086334830184821"><ele></ele><time>2019-8-5T15:56:53Z</time></trkpt>
<trkpt lat="46.53983801930326" lon="7.0862296013485375"><ele></ele><time>2019-8-5T15:56:56Z</time></trkpt>
<trkpt lat="46.53973023549166" lon="7.086282450814107"><ele></ele><time>2019-8-5T15:56:59Z</time></trkpt>
<trkpt lat="46.53962358591347" lon="7.0867003103463"><ele></ele><time>2019-8-5T15:57:2Z</time></trkpt>
<trkpt lat="46.5398391134002" lon="7.0865815769444955"><ele></ele><time>2019-8-5T15:57:5Z</time></trkpt>
<trkpt lat="46.53947033849884" lon="7.086597019457107"><ele></ele><time>2019-8-5T15:57:8Z</time></trkpt>
<trkpt lat="46.53968643292546" lon="7.086660791332226"><ele></ele><time>2019-8-5T15:57:11Z</time></trkpt>
<trkpt lat="46.53955117647069" lon="7.0865573830381114"><ele></ele><time>2019-8-5T15:57:14Z</time></trkpt>
<trkpt lat="46.53969461826724" lon="7.0864000106770435"><ele></ele><time>2019-8-5T15:57:17Z</time></trkpt>
<trkpt lat="46.53957796042134" lon="7.08649202659016"><ele></ele><time>2019-8-5T15:57:20Z</time></trkpt>
<trkpt lat="46.539749077417945" lon="7.086556091667431"><ele></ele><time>2019-8-5T15:57:23Z</time></trkpt>
<trkpt lat="46.53951527548636" lon="7.08658368994256"><ele></ele><time>2019-8-5T15:57:26Z</time></trkpt>
<trkpt lat="46.53979421691324" lon="7.086607942663218"><ele></ele><time>2019-8-5T15:57:29Z</time></trkpt>
<trkpt lat="46.539578000932764" lon="7.0865050626606205"><ele></ele><time>2019-8-5T15:57:32Z</time></trkpt>
<trkpt lat="46.53981212690756" lon="7.086581753028633"><ele></ele><time>2019-8-5T15:57:35Z</time></trkpt>
<trkpt lat="46.539910631768166" lon="7.086437709728465"><ele></ele><time>2019-8-5T15:57:38Z</time></trkpt>
<trkpt lat="46.53985767127565" lon="7.086763965485826"><ele></ele><time>2019-8-5T15:57:41Z</time></trkpt>
<trkpt lat="46.53957828447101" lon="7.0865963151544005"><ele></ele><time>2019-8-5T15:57:44Z</time></trkpt>
<trkpt lat="46.539398617490654" lon="7.086675705154585"><ele></ele><time>2019-8-5T15:57:47Z</time></trkpt>
<trkpt lat="46.53974936091519" lon="7.086647344450035"><ele></ele><time>2019-8-5T15:57:50Z</time></trkpt>
<trkpt lat="46.53958740146264" lon="7.086635364680797"><ele></ele><time>2019-8-5T15:57:53Z</time></trkpt>
<trkpt lat="46.53978518091604" lon="7.0865949652330436"><ele></ele><time>2019-8-5T15:57:56Z</time></trkpt>
<trkpt lat="46.539649843374555" lon="7.086465484739199"><ele></ele><time>2019-8-5T15:57:59Z</time></trkpt>
<trkpt lat="46.53980264527968" lon="7.08642537822739"><ele></ele><time>2019-8-5T15:58:2Z</time></trkpt>
<trkpt lat="46.53986585685422" lon="7.086503184020841"><ele></ele><time>2019-8-5T15:58:5Z</time></trkpt>
<trkpt lat="46.539623383453296" lon="7.086635129938539"><ele></ele><time>2019-8-5T15:58:8Z</time></trkpt>
<trkpt lat="46.539758032409914" lon="7.086542996854651"><ele></ele><time>2019-8-5T15:58:11Z</time></trkpt>
<trkpt lat="46.53959631596579" lon="7.086609233845297"><ele></ele><time>2019-8-5T15:58:14Z</time></trkpt>
<trkpt lat="46.53921761373251" lon="7.0863249071614"><ele></ele><time>2019-8-5T15:58:17Z</time></trkpt>
<trkpt lat="46.53990208188279" lon="7.086581166080831"><ele></ele><time>2019-8-5T15:58:20Z</time></trkpt>
<trkpt lat="46.53977586136764" lon="7.086490734979767"><ele></ele><time>2019-8-5T15:58:23Z</time></trkpt>
<trkpt lat="46.539902203381956" lon="7.0866202745267755"><ele></ele><time>2019-8-5T15:58:26Z</time></trkpt>
<trkpt lat="46.539596477948805" lon="7.086661378145304"><ele></ele><time>2019-8-5T15:58:29Z</time></trkpt>
<trkpt lat="46.53996456423344" lon="7.086424321252107"><ele></ele><time>2019-8-5T15:58:32Z</time></trkpt>
<trkpt lat="46.5397218883825" lon="7.086491087238081"><ele></ele><time>2019-8-5T15:58:35Z</time></trkpt>
<trkpt lat="46.53963209544384" lon="7.0865438186677"><ele></ele><time>2019-8-5T15:58:38Z</time></trkpt>
<trkpt lat="46.54005472178857" lon="7.0864889149673"><ele></ele><time>2019-8-5T15:58:41Z</time></trkpt>
<trkpt lat="46.539631568736226" lon="7.086374349583387"><ele></ele><time>2019-8-5T15:58:44Z</time></trkpt>
<trkpt lat="46.53991095586765" lon="7.086541998933671"><ele></ele><time>2019-8-5T15:58:47Z</time></trkpt>
<trkpt lat="46.53962305943926" lon="7.086530841287129"><ele></ele><time>2019-8-5T15:58:50Z</time></trkpt>
<trkpt lat="46.53969534743441" lon="7.0866346604530825"><ele></ele><time>2019-8-5T15:58:53Z</time></trkpt>
<trkpt lat="46.53956928897334" lon="7.0865963738464"><ele></ele><time>2019-8-5T15:58:56Z</time></trkpt>
<trkpt lat="46.539650693864715" lon="7.086739242586315"><ele></ele><time>2019-8-5T15:58:59Z</time></trkpt>
<trkpt lat="46.539596518440824" lon="7.086674414220355"><ele></ele><time>2019-8-5T15:59:2Z</time></trkpt>
<trkpt lat="46.539579175114" lon="7.086883108712491"><ele></ele><time>2019-8-5T15:59:5Z</time></trkpt>
<trkpt lat="46.53962342394832" lon="7.08664816602005"><ele></ele><time>2019-8-5T15:59:8Z</time></trkpt>
<trkpt lat="46.539901514708745" lon="7.086398660002068"><ele></ele><time>2019-8-5T15:59:11Z</time></trkpt>
<trkpt lat="46.539811438159205" lon="7.086360138873397"><ele></ele><time>2019-8-5T15:59:14Z</time></trkpt>
<trkpt lat="46.53986581634256" lon="7.086490147881016"><ele></ele><time>2019-8-5T15:59:17Z</time></trkpt>
<trkpt lat="46.53982942915405" lon="7.0863600214102975"><ele></ele><time>2019-8-5T15:59:20Z</time></trkpt>
<trkpt lat="46.53973088388003" lon="7.086491028528412"><ele></ele><time>2019-8-5T15:59:23Z</time></trkpt>
<trkpt lat="46.54006460820013" lon="7.086775652386595"><ele></ele><time>2019-8-5T15:59:26Z</time></trkpt>
<trkpt lat="46.53978481635206" lon="7.086477640149685"><ele></ele><time>2019-8-5T15:59:29Z</time></trkpt>
<trkpt lat="46.54019763646247" lon="7.0861620701044945"><ele></ele><time>2019-8-5T15:59:32Z</time></trkpt>
<trkpt lat="46.540268870295485" lon="7.0859269477244"><ele></ele><time>2019-8-5T15:59:35Z</time></trkpt>
<trkpt lat="46.54049355481452" lon="7.085860296163677"><ele></ele><time>2019-8-5T15:59:38Z</time></trkpt>
<trkpt lat="46.54096201037489" lon="7.086078856596816"><ele></ele><time>2019-8-5T15:59:41Z</time></trkpt>
<trkpt lat="46.542406792220326" lon="7.08784244986538"><ele></ele><time>2019-8-5T15:59:44Z</time></trkpt>
<trkpt lat="46.5450312007932" lon="7.0900026724707415"><ele></ele><time>2019-8-5T15:59:47Z</time></trkpt>
<trkpt lat="46.54703543655421" lon="7.092349621326118"><ele></ele><time>2019-8-5T15:59:50Z</time></trkpt>
<trkpt lat="46.54717005024152" lon="7.0922444519388845"><ele></ele><time>2019-8-5T15:59:53Z</time></trkpt>
<trkpt lat="46.54827741102138" lon="7.089603578839932"><ele></ele><time>2019-8-5T15:59:56Z</time></trkpt>
<trkpt lat="46.54944949791877" lon="7.087548917365927"><ele></ele><time>2019-8-5T15:59:59Z</time></trkpt>
<trkpt lat="46.55099060649196" lon="7.08556998537532"><ele></ele><time>2019-8-5T16:0:2Z</time></trkpt>
<trkpt lat="46.55148902019092" lon="7.083858587140545"><ele></ele><time>2019-8-5T16:0:5Z</time></trkpt>
<trkpt lat="46.55222145486092" lon="7.082197768237421"><ele></ele><time>2019-8-5T16:0:8Z</time></trkpt>
<trkpt lat="46.552338232191474" lon="7.082144838981523"><ele></ele><time>2019-8-5T16:0:11Z</time></trkpt>
<trkpt lat="46.55523318290096" lon="7.0844859668949525"><ele></ele><time>2019-8-5T16:0:14Z</time></trkpt>
<trkpt lat="46.55807710292862" lon="7.087792696688637"><ele></ele><time>2019-8-5T16:0:17Z</time></trkpt>
<trkpt lat="46.55888903552137" lon="7.088543792562848"><ele></ele><time>2019-8-5T16:0:20Z</time></trkpt>
<trkpt lat="46.566158816698795" lon="7.091887711169239"><ele></ele><time>2019-8-5T16:0:23Z</time></trkpt>
<trkpt lat="46.56753751715101" lon="7.092661430252122"><ele></ele><time>2019-8-5T16:0:26Z</time></trkpt>
<trkpt lat="46.56797089150468" lon="7.093180376800263"><ele></ele><time>2019-8-5T16:0:29Z</time></trkpt>
<trkpt lat="46.568187021634046" lon="7.0932572515738315"><ele></ele><time>2019-8-5T16:0:32Z</time></trkpt>
<trkpt lat="46.56866266923679" lon="7.092888991513388"><ele></ele><time>2019-8-5T16:0:35Z</time></trkpt>
<trkpt lat="46.56913003667042" lon="7.092755560306142"><ele></ele><time>2019-8-5T16:0:38Z</time></trkpt>
<trkpt lat="46.57071300337331" lon="7.092667143446988"><ele></ele><time>2019-8-5T16:0:41Z</time></trkpt>
<trkpt lat="46.57152199980159" lon="7.092466292307695"><ele></ele><time>2019-8-5T16:0:44Z</time></trkpt>
<trkpt lat="46.57232940065451" lon="7.091743676307442"><ele></ele><time>2019-8-5T16:0:47Z</time></trkpt>
<trkpt lat="46.573993964136626" lon="7.091863413563399"><ele></ele><time>2019-8-5T16:0:50Z</time></trkpt>
<trkpt lat="46.57542344765586" lon="7.09159332036372"><ele></ele><time>2019-8-5T16:0:53Z</time></trkpt>
<trkpt lat="46.576036536967344" lon="7.092045953445428"><ele></ele><time>2019-8-5T16:0:56Z</time></trkpt>
<trkpt lat="46.57719791069905" lon="7.092351577399105"><ele></ele><time>2019-8-5T16:0:59Z</time></trkpt>
<trkpt lat="46.57760370289793" lon="7.0926751085986615"><ele></ele><time>2019-8-5T16:1:2Z</time></trkpt>
<trkpt lat="46.57801693765662" lon="7.092489818567884"><ele></ele><time>2019-8-5T16:1:5Z</time></trkpt>
<trkpt lat="46.57907999619142" lon="7.093004827596257"><ele></ele><time>2019-8-5T16:1:8Z</time></trkpt>
<trkpt lat="46.57995255781301" lon="7.092999233673652"><ele></ele><time>2019-8-5T16:1:11Z</time></trkpt>
<trkpt lat="46.58079203639483" lon="7.093946229262132"><ele></ele><time>2019-8-5T16:1:14Z</time></trkpt>
<trkpt lat="46.58139524898598" lon="7.094111975891724"><ele></ele><time>2019-8-5T16:1:17Z</time></trkpt>
<trkpt lat="46.58197206898416" lon="7.094473593091268"><ele></ele><time>2019-8-5T16:1:20Z</time></trkpt>
<trkpt lat="46.58241253067734" lon="7.094366407896054"><ele></ele><time>2019-8-5T16:1:23Z</time></trkpt>
<trkpt lat="46.582752852688785" lon="7.093868458416708"><ele></ele><time>2019-8-5T16:1:26Z</time></trkpt>
<trkpt lat="46.58341059309834" lon="7.09421651823151"><ele></ele><time>2019-8-5T16:1:29Z</time></trkpt>
<trkpt lat="46.58366103900824" lon="7.0937452275729616"><ele></ele><time>2019-8-5T16:1:32Z</time></trkpt>
<trkpt lat="46.58471608604683" lon="7.094586546574485"><ele></ele><time>2019-8-5T16:1:35Z</time></trkpt>
<trkpt lat="46.58521971407556" lon="7.094544190269642"><ele></ele><time>2019-8-5T16:1:38Z</time></trkpt>
<trkpt lat="46.58558785545759" lon="7.094320034155899"><ele></ele><time>2019-8-5T16:1:41Z</time></trkpt>
<trkpt lat="46.585919261058585" lon="7.093848207177225"><ele></ele><time>2019-8-5T16:1:44Z</time></trkpt>
<trkpt lat="46.58616078936591" lon="7.093403045173289"><ele></ele><time>2019-8-5T16:1:47Z</time></trkpt>
<trkpt lat="46.58632060073599" lon="7.092710498733298"><ele></ele><time>2019-8-5T16:1:50Z</time></trkpt>
<trkpt lat="46.58675433194937" lon="7.093347053083636"><ele></ele><time>2019-8-5T16:1:53Z</time></trkpt>
<trkpt lat="46.58729521195903" lon="7.093721975798037"><ele></ele><time>2019-8-5T16:1:56Z</time></trkpt>
<trkpt lat="46.58958121303781" lon="7.094085751444385"><ele></ele><time>2019-8-5T16:1:59Z</time></trkpt>
<trkpt lat="46.5909407579311" lon="7.094481571168946"><ele></ele><time>2019-8-5T16:2:2Z</time></trkpt>
<trkpt lat="46.5911472182098" lon="7.09433671649692"><ele></ele><time>2019-8-5T16:2:5Z</time></trkpt>
<trkpt lat="46.59281058627313" lon="7.091115995414914"><ele></ele><time>2019-8-5T16:2:8Z</time></trkpt>
<trkpt lat="46.59467600212044" lon="7.09220013610982"><ele></ele><time>2019-8-5T16:2:11Z</time></trkpt>
<trkpt lat="46.595368039955204" lon="7.089063738572678"><ele></ele><time>2019-8-5T16:2:14Z</time></trkpt>
<trkpt lat="46.596010189914665" lon="7.0872717311568305"><ele></ele><time>2019-8-5T16:2:17Z</time></trkpt>
<trkpt lat="46.59617194663681" lon="7.087218476733823"><ele></ele><time>2019-8-5T16:2:20Z</time></trkpt>
<trkpt lat="46.59932705862251" lon="7.09230074605213"><ele></ele><time>2019-8-5T16:2:23Z</time></trkpt>
<trkpt lat="46.59984330095449" lon="7.093445904909535"><ele></ele><time>2019-8-5T16:2:26Z</time></trkpt>
<trkpt lat="46.60020894152416" lon="7.095362053343364"><ele></ele><time>2019-8-5T16:2:29Z</time></trkpt>
<trkpt lat="46.60057755828228" lon="7.095294450130529"><ele></ele><time>2019-8-5T16:2:32Z</time></trkpt>
<trkpt lat="46.601039443216045" lon="7.096322548665931"><ele></ele><time>2019-8-5T16:2:35Z</time></trkpt>
<trkpt lat="46.60201044176949" lon="7.096146712690657"><ele></ele><time>2019-8-5T16:2:38Z</time></trkpt>
<trkpt lat="46.60241144813923" lon="7.094891221427944"><ele></ele><time>2019-8-5T16:2:41Z</time></trkpt>
<trkpt lat="46.60306661335806" lon="7.094391079772123"><ele></ele><time>2019-8-5T16:2:44Z</time></trkpt>
<trkpt lat="46.60311999190965" lon="7.094194963913318"><ele></ele><time>2019-8-5T16:2:47Z</time></trkpt>
<trkpt lat="46.60227904535766" lon="7.0927646787137855"><ele></ele><time>2019-8-5T16:2:50Z</time></trkpt>
<trkpt lat="46.60318419969683" lon="7.091649476912111"><ele></ele><time>2019-8-5T16:2:53Z</time></trkpt>
<trkpt lat="46.60322853811224" lon="7.091440364441339"><ele></ele><time>2019-8-5T16:2:56Z</time></trkpt>
<trkpt lat="46.60306406024655" lon="7.090606118681623"><ele></ele><time>2019-8-5T16:2:59Z</time></trkpt>
<trkpt lat="46.603402519279605" lon="7.08950758758141"><ele></ele><time>2019-8-5T16:3:2Z</time></trkpt>
<trkpt lat="46.60375221715832" lon="7.089139871262416"><ele></ele><time>2019-8-5T16:3:5Z</time></trkpt>
<trkpt lat="46.60432005664398" lon="7.089501643285835"><ele></ele><time>2019-8-5T16:3:8Z</time></trkpt>
<trkpt lat="46.60544147284382" lon="7.088515461152166"><ele></ele><time>2019-8-5T16:3:11Z</time></trkpt>
<trkpt lat="46.60589470902629" lon="7.086724346741252"><ele></ele><time>2019-8-5T16:3:14Z</time></trkpt>
<trkpt lat="46.60675397340784" lon="7.085335165971152"><ele></ele><time>2019-8-5T16:3:17Z</time></trkpt>
<trkpt lat="46.606938398097384" lon="7.083898172197484"><ele></ele><time>2019-8-5T16:3:20Z</time></trkpt>
<trkpt lat="46.60763406970761" lon="7.08198789020753"><ele></ele><time>2019-8-5T16:3:23Z</time></trkpt>
<trkpt lat="46.60792139086211" lon="7.081816301919792"><ele></ele><time>2019-8-5T16:3:26Z</time></trkpt>
<trkpt lat="46.608695082307335" lon="7.081837285022209"><ele></ele><time>2019-8-5T16:3:29Z</time></trkpt>
<trkpt lat="46.6088563846798" lon="7.081640421231064"><ele></ele><time>2019-8-5T16:3:32Z</time></trkpt>
<trkpt lat="46.60884418132724" lon="7.080622364098656"><ele></ele><time>2019-8-5T16:3:35Z</time></trkpt>
<trkpt lat="46.60866897629711" lon="7.079266015080126"><ele></ele><time>2019-8-5T16:3:38Z</time></trkpt>
<trkpt lat="46.6088094256646" lon="7.078168622744613"><ele></ele><time>2019-8-5T16:3:41Z</time></trkpt>
<trkpt lat="46.60866917382828" lon="7.076498775391477"><ele></ele><time>2019-8-5T16:3:44Z</time></trkpt>
<trkpt lat="46.60877566031842" lon="7.076041203484422"><ele></ele><time>2019-8-5T16:3:47Z</time></trkpt>
<trkpt lat="46.60869340747489" lon="7.075637113328483"><ele></ele><time>2019-8-5T16:3:50Z</time></trkpt>
<trkpt lat="46.60842237406596" lon="7.075273456242248"><ele></ele><time>2019-8-5T16:3:53Z</time></trkpt>
<trkpt lat="46.60834823486459" lon="7.074595203454218"><ele></ele><time>2019-8-5T16:3:56Z</time></trkpt>
<trkpt lat="46.60846093855835" lon="7.073276092779962"><ele></ele><time>2019-8-5T16:3:59Z</time></trkpt>
<trkpt lat="46.60896043139423" lon="7.071954344817189"><ele></ele><time>2019-8-5T16:4:2Z</time></trkpt>
<trkpt lat="46.60910900160108" lon="7.070608862322593"><ele></ele><time>2019-8-5T16:4:5Z</time></trkpt>
<trkpt lat="46.60923413329472" lon="7.070359997895185"><ele></ele><time>2019-8-5T16:4:8Z</time></trkpt>
<trkpt lat="46.61176950682364" lon="7.067170606122082"><ele></ele><time>2019-8-5T16:4:11Z</time></trkpt>
<trkpt lat="46.61194024939859" lon="7.067117213973768"><ele></ele><time>2019-8-5T16:4:14Z</time></trkpt>
<trkpt lat="46.61187711031585" lon="7.06706543406749"><ele></ele><time>2019-8-5T16:4:17Z</time></trkpt>
<trkpt lat="46.612030673864766" lon="7.067260182746333"><ele></ele><time>2019-8-5T16:4:20Z</time></trkpt>
<trkpt lat="46.613066687197424" lon="7.067722990137723"><ele></ele><time>2019-8-5T16:4:23Z</time></trkpt>
<trkpt lat="46.614245602587765" lon="7.067871528113313"><ele></ele><time>2019-8-5T16:4:26Z</time></trkpt>
<trkpt lat="46.614587002982944" lon="7.0677386347053135"><ele></ele><time>2019-8-5T16:4:29Z</time></trkpt>
<trkpt lat="46.61592020471269" lon="7.068303868356845"><ele></ele><time>2019-8-5T16:4:32Z</time></trkpt>
<trkpt lat="46.616380930388345" lon="7.068901226589916"><ele></ele><time>2019-8-5T16:4:35Z</time></trkpt>
<trkpt lat="46.61701192928142" lon="7.069301603040573"><ele></ele><time>2019-8-5T16:4:38Z</time></trkpt>
<trkpt lat="46.61727746140323" lon="7.070735843747586"><ele></ele><time>2019-8-5T16:4:41Z</time></trkpt>
<trkpt lat="46.617521903243585" lon="7.071217215551693"><ele></ele><time>2019-8-5T16:4:44Z</time></trkpt>
<trkpt lat="46.617945534188976" lon="7.071475432073593"><ele></ele><time>2019-8-5T16:4:47Z</time></trkpt>
<trkpt lat="46.61931752148382" lon="7.070134413021694"><ele></ele><time>2019-8-5T16:4:50Z</time></trkpt>
<trkpt lat="46.62044050984834" lon="7.06968283348855"><ele></ele><time>2019-8-5T16:4:53Z</time></trkpt>
<trkpt lat="46.61991046986794" lon="7.067140594592945"><ele></ele><time>2019-8-5T16:4:56Z</time></trkpt>
<trkpt lat="46.619900063453294" lon="7.066709827134637"><ele></ele><time>2019-8-5T16:4:59Z</time></trkpt>
<trkpt lat="46.620097449686334" lon="7.066551795307798"><ele></ele><time>2019-8-5T16:5:2Z</time></trkpt>
<trkpt lat="46.62222851286824" lon="7.06627595298956"><ele></ele><time>2019-8-5T16:5:5Z</time></trkpt>
<trkpt lat="46.62232793376257" lon="7.066418885442381"><ele></ele><time>2019-8-5T16:5:8Z</time></trkpt>
<trkpt lat="46.62243273518723" lon="7.068206880765507"><ele></ele><time>2019-8-5T16:5:11Z</time></trkpt>
<trkpt lat="46.62252303042696" lon="7.0683107109120735"><ele></ele><time>2019-8-5T16:5:14Z</time></trkpt>
<trkpt lat="46.6260842870014" lon="7.067998973319703"><ele></ele><time>2019-8-5T16:5:17Z</time></trkpt>
<trkpt lat="46.62653358984974" lon="7.067852251683532"><ele></ele><time>2019-8-5T16:5:20Z</time></trkpt>
<trkpt lat="46.627646462343435" lon="7.067061136265418"><ele></ele><time>2019-8-5T16:5:23Z</time></trkpt>
<trkpt lat="46.628134137771376" lon="7.067645370333712"><ele></ele><time>2019-8-5T16:5:26Z</time></trkpt>
<trkpt lat="46.63011793973847" lon="7.066352005119672"><ele></ele><time>2019-8-5T16:5:29Z</time></trkpt>
<trkpt lat="46.631909293980925" lon="7.063989070974289"><ele></ele><time>2019-8-5T16:5:32Z</time></trkpt>
<trkpt lat="46.63294913885201" lon="7.062884892573732"><ele></ele><time>2019-8-5T16:5:35Z</time></trkpt>
<trkpt lat="46.6329384999709" lon="7.06238872900461"><ele></ele><time>2019-8-5T16:5:38Z</time></trkpt>
<trkpt lat="46.63343877707119" lon="7.0613405141507934"><ele></ele><time>2019-8-5T16:5:41Z</time></trkpt>
<trkpt lat="46.6352630250725" lon="7.060779240454552"><ele></ele><time>2019-8-5T16:5:44Z</time></trkpt>
<trkpt lat="46.63647535917958" lon="7.05746662072705"><ele></ele><time>2019-8-5T16:5:47Z</time></trkpt>
<trkpt lat="46.637018367947405" lon="7.05576499408113"><ele></ele><time>2019-8-5T16:5:50Z</time></trkpt>
<trkpt lat="46.63503004967913" lon="7.053023591461965"><ele></ele><time>2019-8-5T16:5:53Z</time></trkpt>
<trkpt lat="46.6349844071172" lon="7.052828027290542"><ele></ele><time>2019-8-5T16:5:56Z</time></trkpt>
<trkpt lat="46.63543200214958" lon="7.052184906352205"><ele></ele><time>2019-8-5T16:5:59Z</time></trkpt>
<trkpt lat="46.63518712406213" lon="7.0515989880894185"><ele></ele><time>2019-8-5T16:6:2Z</time></trkpt>
</trkseg></trk></gpx>